Observation data for Stinnett on 06/18/2019      Previous  Date  Next       Current Mesonet Observations  Soil Data  Daily Summary Page  Observations in Plain Language
KST3 180500Z 36005KT 17/15 A3005 RMK A01 T01730148  RH  085%=      5-min Rain = 0
KST3 180501Z 36005KT 17/15 A3005 RMK A01 T01730147  RH  084%=      5-min Rain = 0
KST3 180502Z 36005KT 17/15 A3004 RMK A01 T01740146  RH  084%=      5-min Rain = 0
KST3 180503Z 00005KT 17/15 A3004 RMK A01 T01740146  RH  083%=      5-min Rain = 0
KST3 180504Z 01005KT 17/15 A3004 RMK A01 T01740147  RH  084%=      5-min Rain = 0
KST3 180505Z 01005KT 17/15 A3004 RMK A01 T01740147  RH  084%=      5-min Rain = 0
KST3 180506Z 02005KT 17/15 A3004 RMK A01 T01740148  RH  084%=      5-min Rain = 0
KST3 180507Z 03005KT 17/15 A3003 RMK A01 T01740147  RH  084%=      5-min Rain = 0
KST3 180508Z 03005KT 18/15 A3003 RMK A01 T01750146  RH  083%=      5-min Rain = 0
KST3 180509Z 04005KT 18/15 A3003 RMK A01 T01750146  RH  083%=      5-min Rain = 0
KST3 180510Z 05005KT 18/15 A3002 RMK A01 T01750147  RH  083%=      5-min Rain = 0
KST3 180511Z 06006KT 18/15 A3002 RMK A01 T01750146  RH  083%=      5-min Rain = 0
KST3 180512Z 06007KT 18/15 A3001 RMK A01 T01760146  RH  082%=      5-min Rain = 0
KST3 180513Z 07007KT 18/15 A3001 RMK A01 T01770147  RH  083%=      5-min Rain = 0
KST3 180514Z 07007KT 18/15 A30 RMK A01 T01770148  RH  083%=      5-min Rain = 0
KST3 180515Z 08007KT 18/15 A30 RMK A01 T01770149  RH  084%=      5-min Rain = 0
KST3 180516Z 08006KT 18/15 A30 RMK A01 T01760150  RH  084%=      5-min Rain = 0
KST3 180517Z 08006KT 18/15 A30 RMK A01 T01760151  RH  085%=      5-min Rain = 0
KST3 180518Z 09008KT 18/15 A30 RMK A01 T01750151  RH  086%=      5-min Rain = 0
KST3 180519Z 09009KT 18/15 A30 RMK A01 T01750151  RH  086%=      5-min Rain = 0
KST3 180520Z 09010KT 17/15 A30 RMK A01 T01740151  RH  086%=      5-min Rain = 0
KST3 180521Z 09009KT 17/15 A30 RMK A01 T01740152  RH  087%=      5-min Rain = 0
KST3 180522Z 09008KT 17/15 A30 RMK A01 T01740152  RH  087%=      5-min Rain = 0
KST3 180523Z 09007KT 17/15 A30 RMK A01 T01730152  RH  087%=      5-min Rain = 0
KST3 180524Z 08007KT 17/15 A30 RMK A01 T01730151  RH  087%=      5-min Rain = 0
KST3 180525Z 09006KT 17/15 A3001 RMK A01 T01730150  RH  087%=      5-min Rain = 0
KST3 180526Z 10006KT 17/15 A3001 RMK A01 T01730151  RH  087%=      5-min Rain = 0
KST3 180527Z 10006KT 17/15 A3001 RMK A01 T01730152  RH  088%=      5-min Rain = 0
KST3 180528Z 10007KT 17/15 A3001 RMK A01 T01730153  RH  088%=      5-min Rain = 0
KST3 180529Z 09007KT 17/15 A3001 RMK A01 T01730154  RH  089%=      5-min Rain = 0
KST3 180530Z 09007KT 17/15 A3001 RMK A01 T01720154  RH  089%=      5-min Rain = 0
KST3 180531Z 11007KT 17/15 A3001 RMK A01 T01720153  RH  089%=      5-min Rain = 0
KST3 180532Z 11007KT 17/15 A3001 RMK A01 T01720154  RH  089%=      5-min Rain = 0
KST3 180533Z 13007KT 17/15 A3001 RMK A01 T01720153  RH  088%=      5-min Rain = 0
KST3 180534Z 14008KT 17/15 A3001 RMK A01 T01720152  RH  088%=      5-min Rain = 0
KST3 180535Z 14007KT 17/15 A3001 RMK A01 T01720154  RH  089%=      5-min Rain = 0
KST3 180536Z 14007KT 17/15 A3001 RMK A01 T01720154  RH  089%=      5-min Rain = 0
KST3 180537Z 13009KT 17/15 A3001 RMK A01 T01720154  RH  089%=      5-min Rain = 0
KST3 180538Z 13008KT 17/15 A3001 RMK A01 T01720154  RH  089%=      5-min Rain = 0
KST3 180539Z 13008KT 17/15 A3001 RMK A01 T01720154  RH  089%=      5-min Rain = 0
KST3 180540Z 13009KT 17/15 A3001 RMK A01 T01720154  RH  089%=      5-min Rain = 0
KST3 180541Z 14007KT 17/15 A3001 RMK A01 T01720154  RH  089%=      5-min Rain = 0
KST3 180542Z 13007KT 17/15 A3001 RMK A01 T01720154  RH  089%=      5-min Rain = 0
KST3 180543Z 14008KT 17/15 A3001 RMK A01 T01720154  RH  089%=      5-min Rain = 0
KST3 180544Z 14008KT 17/15 A3001 RMK A01 T01720152  RH  088%=      5-min Rain = 0
KST3 180545Z 13008KT 17/15 A3001 RMK A01 T01720152  RH  088%=      5-min Rain = 0
KST3 180546Z 14007KT 17/15 A3001 RMK A01 T01720152  RH  088%=      5-min Rain = 0
KST3 180547Z 13008KT 17/15 A3001 RMK A01 T01720151  RH  088%=      5-min Rain = 0
KST3 180548Z 13008KT 17/15 A3001 RMK A01 T01720151  RH  087%=      5-min Rain = 0
KST3 180549Z 13007KT 17/15 A30 RMK A01 T01720151  RH  087%=      5-min Rain = 0
KST3 180550Z 12008KT 17/15 A30 RMK A01 T01720151  RH  087%=      5-min Rain = 0
KST3 180551Z 12008KT 17/15 A30 RMK A01 T01720151  RH  087%=      5-min Rain = 0
KST3 180552Z 12008KT 17/15 A30 RMK A01 T01720151  RH  087%=      5-min Rain = 0
KST3 180553Z 11008KT 17/15 A30 RMK A01 T01720152  RH  088%=      5-min Rain = 0
KST3 180554Z 11009KT 17/15 A30 RMK A01 T01720152  RH  088%=      5-min Rain = 0
KST3 180555Z 11010KT 17/15 A30 RMK A01 T01710151  RH  088%=      5-min Rain = 0
KST3 180556Z 11010KT 17/15 A30 RMK A01 T01720151  RH  088%=      5-min Rain = 0
KST3 180557Z 11010KT 17/15 A30 RMK A01 T01720150  RH  087%=      5-min Rain = 0
KST3 180558Z 11009KT 17/15 A30 RMK A01 T01720151  RH  087%=      5-min Rain = 0
KST3 180559Z 11010KT 17/15 A30 RMK A01 T01720151  RH  087%=      5-min Rain = 0
KST3 180600Z 12009KT 17/15 A30 RMK A01 T01720151  RH  087%=      5-min Rain = 0
KST3 180601Z 12009KT 17/15 A30 RMK A01 T01720150  RH  087%=      5-min Rain = 0
KST3 180602Z 12008KT 17/15 A30 RMK A01 T01720150  RH  087%=      5-min Rain = 0
KST3 180603Z 12008KT 17/15 A30 RMK A01 T01720150  RH  087%=      5-min Rain = 0
KST3 180604Z 12008KT 17/15 A30 RMK A01 T01720150  RH  086%=      5-min Rain = 0
KST3 180605Z 12008KT 17/15 A30 RMK A01 T01720150  RH  087%=      5-min Rain = 0
KST3 180606Z 11008KT 17/15 A30 RMK A01 T01730151  RH  087%=      5-min Rain = 0
KST3 180607Z 11007KT 17/15 A30 RMK A01 T01720151  RH  087%=      5-min Rain = 0
KST3 180608Z 11008KT 17/15 A30 RMK A01 T01720151  RH  087%=      5-min Rain = 0
KST3 180609Z 10008KT 17/15 A30 RMK A01 T01720152  RH  088%=      5-min Rain = 0
KST3 180610Z 10008KT 17/15 A30 RMK A01 T01720152  RH  088%=      5-min Rain = 0
KST3 180611Z 11007KT 17/15 A30 RMK A01 T01720152  RH  088%=      5-min Rain = 0
KST3 180612Z 10007KT 17/15 A30 RMK A01 T01710151  RH  088%=      5-min Rain = 0
KST3 180613Z 11007KT 17/15 A30 RMK A01 T01710151  RH  088%=      5-min Rain = 0
KST3 180614Z 10006KT 17/15 A30 RMK A01 T01720151  RH  088%=      5-min Rain = 0
KST3 180615Z 10007KT 17/15 A2999 RMK A01 T01710152  RH  088%=      5-min Rain = 0
KST3 180616Z 10006KT 17/15 A2999 RMK A01 T01710152  RH  089%=      5-min Rain = 0
KST3 180617Z 10006KT 17/15 A2999 RMK A01 T01710152  RH  089%=      5-min Rain = 0
KST3 180618Z 10006KT 17/15 A2999 RMK A01 T01710152  RH  089%=      5-min Rain = 0
KST3 180619Z 10007KT 17/15 A2999 RMK A01 T01700152  RH  089%=      5-min Rain = 0
KST3 180620Z 09006KT 17/15 A2999 RMK A01 T01700152  RH  089%=      5-min Rain = 0
KST3 180621Z 09007KT 17/15 A2999 RMK A01 T01700152  RH  089%=      5-min Rain = 0
KST3 180622Z 09007KT 17/15 A2999 RMK A01 T01700150  RH  088%=      5-min Rain = 0
KST3 180623Z 08006KT 17/15 A2999 RMK A01 T01700150  RH  088%=      5-min Rain = 0
KST3 180624Z 08006KT 17/15 A2999 RMK A01 T01710150  RH  087%=      5-min Rain = 0
KST3 180625Z 08005KT 17/15 A2999 RMK A01 T01710150  RH  088%=      5-min Rain = 0
KST3 180626Z 08005KT 17/15 A2999 RMK A01 T01710151  RH  088%=      5-min Rain = 0
KST3 180627Z 09005KT 17/15 A2999 RMK A01 T01700151  RH  088%=      5-min Rain = 0
KST3 180628Z 09005KT 17/15 A2999 RMK A01 T01710151  RH  088%=      5-min Rain = 0
KST3 180629Z 09004KT 17/15 A2999 RMK A01 T01700151  RH  089%=      5-min Rain = 0
KST3 180630Z 08004KT 17/15 A2999 RMK A01 T01700152  RH  089%=      5-min Rain = 0
KST3 180631Z 08004KT 17/15 A2999 RMK A01 T01700151  RH  089%=      5-min Rain = 0
KST3 180632Z 07004KT 17/15 A2999 RMK A01 T01690152  RH  089%=      5-min Rain = 0
KST3 180633Z 07003KT 17/15 A2999 RMK A01 T01690151  RH  089%=      5-min Rain = 0
KST3 180634Z 06004KT 17/15 A2999 RMK A01 T01690151  RH  089%=      5-min Rain = 0
KST3 180635Z 06003KT 17/15 A2999 RMK A01 T01690152  RH  089%=      5-min Rain = 0
KST3 180636Z 06003KT 17/15 A30 RMK A01 T01690151  RH  090%=      5-min Rain = 0
KST3 180637Z 07003KT 17/15 A30 RMK A01 T01690152  RH  090%=      5-min Rain = 0
KST3 180638Z 07003KT 17/15 A30 RMK A01 T01690152  RH  090%=      5-min Rain = 0
KST3 180639Z 07003KT 17/15 A30 RMK A01 T01690152  RH  089%=      5-min Rain = 0
KST3 180640Z 07003KT 17/15 A30 RMK A01 T01690151  RH  089%=      5-min Rain = 0
KST3 180641Z 08003KT 17/15 A30 RMK A01 T01690151  RH  089%=      5-min Rain = 0
KST3 180642Z 08004KT 17/15 A30 RMK A01 T01690151  RH  089%=      5-min Rain = 0
KST3 180643Z 08004KT 17/15 A30 RMK A01 T01690152  RH  089%=      5-min Rain = 0
KST3 180644Z 08005KT 17/15 A2999 RMK A01 T01690151  RH  089%=      5-min Rain = 0
KST3 180645Z 08005KT 17/15 A2999 RMK A01 T01690152  RH  089%=      5-min Rain = 0
KST3 180646Z 07005KT 17/15 A2999 RMK A01 T01690152  RH  089%=      5-min Rain = 0
KST3 180647Z 07005KT 17/15 A2999 RMK A01 T01690152  RH  090%=      5-min Rain = 0
KST3 180648Z 07005KT 17/15 A2999 RMK A01 T01690153  RH  090%=      5-min Rain = 0
KST3 180649Z 08004KT 17/15 A2999 RMK A01 T01690153  RH  090%=      5-min Rain = 0
KST3 180650Z 07004KT 17/15 A2999 RMK A01 T01690153  RH  091%=      5-min Rain = 0
KST3 180651Z 07004KT 17/15 A2999 RMK A01 T01690154  RH  091%=      5-min Rain = 0
KST3 180652Z 07004KT 17/15 A2999 RMK A01 T01680153  RH  091%=      5-min Rain = 0
KST3 180653Z 07003KT 17/15 A2999 RMK A01 T01680153  RH  091%=      5-min Rain = 0
KST3 180654Z 07003KT 17/15 A30 RMK A01 T01680153  RH  091%=      5-min Rain = 0
KST3 180655Z 06002KT 17/15 A30 RMK A01 T01680153  RH  091%=      5-min Rain = 0
KST3 180656Z 05001KT 17/15 A30 RMK A01 T01680152  RH  091%=      5-min Rain = 0
KST3 180657Z 05000KT 17/15 A30 RMK A01 T01680152  RH  090%=      5-min Rain = 0
KST3 180658Z 05000KT 17/15 A30 RMK A01 T01680152  RH  091%=      5-min Rain = 0
KST3 180659Z 05001KT 17/15 A30 RMK A01 T01680152  RH  090%=      5-min Rain = 0
KST3 180700Z 05001KT 17/15 A30 RMK A01 T01680153  RH  091%=      5-min Rain = 0
KST3 180701Z 05001KT 17/15 A30 RMK A01 T01680152  RH  091%=      5-min Rain = 0
KST3 180702Z 05001KT 17/15 A30 RMK A01 T01680152  RH  090%=      5-min Rain = 0
KST3 180703Z 05001KT 17/15 A30 RMK A01 T01680153  RH  091%=      5-min Rain = 0
KST3 180704Z 05002KT 17/15 A30 RMK A01 T01680153  RH  091%=      5-min Rain = 0
KST3 180705Z 05002KT 17/15 A30 RMK A01 T01680153  RH  091%=      5-min Rain = 0
KST3 180706Z 06002KT 17/15 A30 RMK A01 T01680153  RH  091%=      5-min Rain = 0
KST3 180707Z 05002KT 17/15 A30 RMK A01 T01680154  RH  092%=      5-min Rain = 0
KST3 180708Z 05003KT 17/15 A30 RMK A01 T01670154  RH  091%=      5-min Rain = 0
KST3 180709Z 06003KT 17/15 A30 RMK A01 T01670152  RH  091%=      5-min Rain = 0
KST3 180710Z 06003KT 17/15 A30 RMK A01 T01680152  RH  090%=      5-min Rain = 0
KST3 180711Z 07003KT 17/15 A30 RMK A01 T01680153  RH  091%=      5-min Rain = 0
KST3 180712Z 08003KT 17/15 A30 RMK A01 T01680153  RH  091%=      5-min Rain = 0
KST3 180713Z 08003KT 17/15 A30 RMK A01 T01690153  RH  091%=      5-min Rain = 0
KST3 180714Z 08003KT 17/15 A30 RMK A01 T01690154  RH  091%=      5-min Rain = 0
KST3 180715Z 09003KT 17/16 A30 RMK A01 T01690155  RH  092%=      5-min Rain = 0
KST3 180716Z 09004KT 17/16 A3001 RMK A01 T01690156  RH  092%=      5-min Rain = 0
KST3 180717Z 09004KT 17/16 A3001 RMK A01 T01680155  RH  092%=      5-min Rain = 0
KST3 180718Z 11004KT 17/16 A3001 RMK A01 T01680155  RH  092%=      5-min Rain = 0
KST3 180719Z 12004KT 17/15 A3001 RMK A01 T01680154  RH  091%=      5-min Rain = 0
KST3 180720Z 11004KT 17/15 A3001 RMK A01 T01680153  RH  091%=      5-min Rain = 0
KST3 180721Z 11004KT 17/15 A3001 RMK A01 T01690152  RH  089%=      5-min Rain = 0
KST3 180722Z 12004KT 17/15 A3002 RMK A01 T01700152  RH  089%=      5-min Rain = 0
KST3 180723Z 13004KT 17/15 A3002 RMK A01 T01700151  RH  089%=      5-min Rain = 0
KST3 180724Z 13004KT 17/15 A3002 RMK A01 T01710152  RH  089%=      5-min Rain = 0
KST3 180725Z 13003KT 17/15 A3002 RMK A01 T01710152  RH  089%=      5-min Rain = 0
KST3 180726Z 13004KT 17/15 A3002 RMK A01 T01710152  RH  089%=      5-min Rain = 0
KST3 180727Z 13003KT 17/15 A3002 RMK A01 T01710152  RH  089%=      5-min Rain = 0
KST3 180728Z 13003KT 17/15 A3002 RMK A01 T01700152  RH  089%=      5-min Rain = 0
KST3 180729Z 13003KT 17/15 A3002 RMK A01 T01700152  RH  089%=      5-min Rain = 0
KST3 180730Z 13004KT 17/15 A3002 RMK A01 T01710153  RH  089%=      5-min Rain = 0
KST3 180731Z 11003KT 17/15 A3002 RMK A01 T01710152  RH  089%=      5-min Rain = 0
KST3 180732Z 13003KT 17/15 A3002 RMK A01 T01710153  RH  089%=      5-min Rain = 0
KST3 180733Z 16003KT 17/15 A3002 RMK A01 T01710153  RH  089%=      5-min Rain = 0
KST3 180734Z 17003KT 17/15 A3002 RMK A01 T01710153  RH  089%=      5-min Rain = 0
KST3 180735Z 18003KT 17/15 A3002 RMK A01 T01700153  RH  090%=      5-min Rain = 0
KST3 180736Z 19003KT 17/16 A3002 RMK A01 T01700155  RH  091%=      5-min Rain = 0
KST3 180737Z 20004KT 17/16 A3002 RMK A01 T01690155  RH  091%=      5-min Rain = 0
KST3 180738Z 20004KT 17/16 A3002 RMK A01 T01690156  RH  092%=      5-min Rain = 0
KST3 180739Z 19003KT 17/16 A3002 RMK A01 T01680156  RH  092%=      5-min Rain = 0
KST3 180740Z 19004KT 17/16 A3002 RMK A01 T01680156  RH  093%=      5-min Rain = 0
KST3 180741Z 18004KT 17/16 A3002 RMK A01 T01670156  RH  093%=      5-min Rain = 0
KST3 180742Z 17004KT 17/16 A3002 RMK A01 T01670156  RH  093%=      5-min Rain = 0
KST3 180743Z 17005KT 17/16 A3002 RMK A01 T01680155  RH  092%=      5-min Rain = 0
KST3 180744Z 19005KT 17/16 A3002 RMK A01 T01690155  RH  091%=      5-min Rain = 0
KST3 180745Z 20005KT 17/16 A3002 RMK A01 T01700155  RH  091%=      5-min Rain = 0
KST3 180746Z 20005KT 17/16 A3001 RMK A01 T01690155  RH  091%=      5-min Rain = 0
KST3 180747Z 19005KT 17/16 A3001 RMK A01 T01690155  RH  091%=      5-min Rain = 0
KST3 180748Z 19005KT 17/16 A3001 RMK A01 T01680155  RH  092%=      5-min Rain = 0
KST3 180749Z 20005KT 17/16 A3001 RMK A01 T01680155  RH  092%=      5-min Rain = 0
KST3 180750Z 21004KT 17/16 A3001 RMK A01 T01680155  RH  092%=      5-min Rain = 0
KST3 180751Z 21003KT 17/15 A3001 RMK A01 T01680154  RH  092%=      5-min Rain = 0
KST3 180752Z 22003KT 17/15 A3002 RMK A01 T01680154  RH  091%=      5-min Rain = 0
KST3 180753Z 22003KT 17/16 A3002 RMK A01 T01680155  RH  092%=      5-min Rain = 0
KST3 180754Z 22002KT 17/16 A3002 RMK A01 T01680155  RH  092%=      5-min Rain = 0
KST3 180755Z 23003KT 17/16 A3002 RMK A01 T01670155  RH  093%=      5-min Rain = 0
KST3 180756Z 26002KT 17/16 A3001 RMK A01 T01670155  RH  093%=      5-min Rain = 0
KST3 180757Z 28002KT 17/15 A3001 RMK A01 T01660154  RH  093%=      5-min Rain = 0
KST3 180758Z 30002KT 17/15 A3001 RMK A01 T01660154  RH  093%=      5-min Rain = 0
KST3 180759Z 29003KT 17/15 A3001 RMK A01 T01650154  RH  093%=      5-min Rain = 0
KST3 180800Z 29004KT 17/15 A3002 RMK A01 T01650154  RH  093%=      5-min Rain = 0
KST3 180801Z 29003KT 17/15 A3002 RMK A01 T01650154  RH  093%=      5-min Rain = 0
KST3 180802Z 29004KT 17/15 A3002 RMK A01 T01650153  RH  093%=      5-min Rain = 0
KST3 180803Z 29003KT 17/15 A3002 RMK A01 T01650153  RH  092%=      5-min Rain = 0
KST3 180804Z 31004KT 17/15 A3002 RMK A01 T01650152  RH  092%=      5-min Rain = 0
KST3 180805Z 31004KT 17/15 A3001 RMK A01 T01650152  RH  092%=      5-min Rain = 0
KST3 180806Z 30003KT 17/15 A3001 RMK A01 T01660154  RH  093%=      5-min Rain = 0
KST3 180807Z 30002KT 17/15 A3001 RMK A01 T01650154  RH  093%=      5-min Rain = 0
KST3 180808Z 29002KT 16/16 A3001 RMK A01 T01640155  RH  094%=      5-min Rain = 0
KST3 180809Z 28002KT 16/15 A3001 RMK A01 T01640154  RH  094%=      5-min Rain = 0
KST3 180810Z 27003KT 16/15 A3001 RMK A01 T01640154  RH  094%=      5-min Rain = 0
KST3 180811Z 28004KT 16/15 A3001 RMK A01 T01640154  RH  094%=      5-min Rain = 0
KST3 180812Z 29005KT 16/15 A3001 RMK A01 T01640154  RH  094%=      5-min Rain = 0
KST3 180813Z 30005KT 16/15 A3001 RMK A01 T01640154  RH  093%=      5-min Rain = 0
KST3 180814Z 30004KT 16/15 A3001 RMK A01 T01640154  RH  094%=      5-min Rain = 0
KST3 180815Z 29005KT 16/15 A3001 RMK A01 T01640153  RH  093%=      5-min Rain = 0
KST3 180816Z 30005KT 17/15 A3001 RMK A01 T01650153  RH  093%=      5-min Rain = 0
KST3 180817Z 30006KT 17/15 A3001 RMK A01 T01650152  RH  092%=      5-min Rain = 0
KST3 180818Z 30006KT 17/15 A3001 RMK A01 T01660152  RH  091%=      5-min Rain = 0
KST3 180819Z 30007KT 17/15 A3001 RMK A01 T01670152  RH  091%=      5-min Rain = 0
KST3 180820Z 31007KT 17/15 A3001 RMK A01 T01670154  RH  092%=      5-min Rain = 0
KST3 180821Z 31007KT 17/16 A3001 RMK A01 T01660155  RH  093%=      5-min Rain = 0
KST3 180822Z 31007KT 17/16 A3001 RMK A01 T01650155  RH  093%=      5-min Rain = 0
KST3 180823Z 31007KT 17/16 A3001 RMK A01 T01650155  RH  094%=      5-min Rain = 0
KST3 180824Z 32007KT 17/16 A3001 RMK A01 T01650156  RH  094%=      5-min Rain = 0
KST3 180825Z 32007KT 16/16 A30 RMK A01 T01640156  RH  095%=      5-min Rain = 0
KST3 180826Z 32007KT 16/16 A30 RMK A01 T01640156  RH  095%=      5-min Rain = 0
KST3 180827Z 31007KT 16/16 A30 RMK A01 T01630156  RH  095%=      5-min Rain = 0
KST3 180828Z 31007KT 16/16 A30 RMK A01 T01630156  RH  096%=      5-min Rain = 0
KST3 180829Z 31007KT 16/16 A30 RMK A01 T01630157  RH  096%=      5-min Rain = 0
KST3 180830Z 32007KT 16/16 A30 RMK A01 T01630157  RH  096%=      5-min Rain = 0
KST3 180831Z 32008KT 16/16 A30 RMK A01 T01630156  RH  096%=      5-min Rain = 0
KST3 180832Z 32008KT 16/16 A30 RMK A01 T01630156  RH  096%=      5-min Rain = 0
KST3 180833Z 32008KT 16/16 A30 RMK A01 T01630157  RH  096%=      5-min Rain = 0
KST3 180834Z 31008KT 16/16 A30 RMK A01 T01630157  RH  096%=      5-min Rain = 0
KST3 180835Z 31007KT 16/16 A30 RMK A01 T01630156  RH  096%=      5-min Rain = 0
KST3 180836Z 32006KT 16/16 A30 RMK A01 T01630156  RH  096%=      5-min Rain = 0
KST3 180837Z 32006KT 16/16 A2999 RMK A01 T01630156  RH  096%=      5-min Rain = 0
KST3 180838Z 32006KT 16/16 A2999 RMK A01 T01630156  RH  095%=      5-min Rain = 0
KST3 180839Z 31007KT 16/16 A30 RMK A01 T01630156  RH  095%=      5-min Rain = 0
KST3 180840Z 31006KT 16/16 A2999 RMK A01 T01630156  RH  095%=      5-min Rain = 0
KST3 180841Z 32006KT 16/16 A2999 RMK A01 T01630155  RH  095%=      5-min Rain = 0
KST3 180842Z 32006KT 16/16 A2999 RMK A01 T01630155  RH  095%=      5-min Rain = 0
KST3 180843Z 32007KT 16/16 A2999 RMK A01 T01640156  RH  095%=      5-min Rain = 0
KST3 180844Z 32007KT 16/16 A2999 RMK A01 T01640155  RH  095%=      5-min Rain = 0
KST3 180845Z 32008KT 16/16 A2999 RMK A01 T01640156  RH  095%=      5-min Rain = 0
KST3 180846Z 32008KT 16/16 A2999 RMK A01 T01640156  RH  095%=      5-min Rain = 0
KST3 180847Z 32008KT 16/16 A2999 RMK A01 T01630156  RH  095%=      5-min Rain = 0
KST3 180848Z 32009KT 16/16 A2999 RMK A01 T01630156  RH  095%=      5-min Rain = 0
KST3 180849Z 32008KT 16/16 A2999 RMK A01 T01630156  RH  095%=      5-min Rain = 0
KST3 180850Z 31007KT 16/16 A2999 RMK A01 T01630156  RH  096%=      5-min Rain = 0
KST3 180851Z 32007KT 16/16 A2999 RMK A01 T01630156  RH  096%=      5-min Rain = 0
KST3 180852Z 32008KT 16/16 A2999 RMK A01 T01630156  RH  096%=      5-min Rain = 0
KST3 180853Z 31008KT 16/16 A2999 RMK A01 T01630157  RH  096%=      5-min Rain = 0
KST3 180854Z 32011KT 16/16 A2999 RMK A01 T01640157  RH  096%=      5-min Rain = 0
KST3 180855Z 32010KT 16/16 A2999 RMK A01 T01640157  RH  096%=      5-min Rain = 0
KST3 180856Z 32010KT 16/16 A2999 RMK A01 T01640157  RH  096%=      5-min Rain = 0
KST3 180857Z 32010KT 16/16 A2999 RMK A01 T01640157  RH  096%=      5-min Rain = 0
KST3 180858Z 32010KT 16/16 A2999 RMK A01 T01640158  RH  096%=      5-min Rain = 0
KST3 180859Z 32009KT 16/16 A2999 RMK A01 T01640157  RH  096%=      5-min Rain = 0
KST3 180900Z 32010KT 16/16 A2999 RMK A01 T01640157  RH  096%=      5-min Rain = 0
KST3 180901Z 32009KT 16/16 A2999 RMK A01 T01640156  RH  095%=      5-min Rain = 0
KST3 180902Z 31008KT 16/16 A2999 RMK A01 T01640156  RH  095%=      5-min Rain = 0
KST3 180903Z 31008KT 16/16 A2999 RMK A01 T01640156  RH  095%=      5-min Rain = 0
KST3 180904Z 31008KT 16/16 A2998 RMK A01 T01640156  RH  095%=      5-min Rain = 0
KST3 180905Z 31008KT 16/16 A2998 RMK A01 T01640155  RH  094%=      5-min Rain = 0
KST3 180906Z 31008KT 17/16 A2998 RMK A01 T01650155  RH  094%=      5-min Rain = 0
KST3 180907Z 31008KT 17/15 A2998 RMK A01 T01650154  RH  093%=      5-min Rain = 0
KST3 180908Z 31008KT 17/15 A2998 RMK A01 T01650154  RH  093%=      5-min Rain = 0
KST3 180909Z 31009KT 17/15 A2998 RMK A01 T01660153  RH  092%=      5-min Rain = 0
KST3 180910Z 31009KT 17/15 A2998 RMK A01 T01660153  RH  092%=      5-min Rain = 0
KST3 180911Z 32009KT 17/15 A2998 RMK A01 T01660153  RH  092%=      5-min Rain = 0
KST3 180912Z 32008KT 17/15 A2998 RMK A01 T01660153  RH  092%=      5-min Rain = 0
KST3 180913Z 32008KT 17/15 A2998 RMK A01 T01660154  RH  092%=      5-min Rain = 0
KST3 180914Z 32008KT 17/15 A2998 RMK A01 T01660154  RH  092%=      5-min Rain = 0
KST3 180915Z 32007KT 17/15 A2998 RMK A01 T01660153  RH  092%=      5-min Rain = 0
KST3 180916Z 32007KT 17/15 A2998 RMK A01 T01660153  RH  092%=      5-min Rain = 0
KST3 180917Z 32008KT 17/15 A2998 RMK A01 T01660152  RH  092%=      5-min Rain = 0
KST3 180918Z 32008KT 17/15 A2998 RMK A01 T01660152  RH  091%=      5-min Rain = 0
KST3 180919Z 32008KT 17/15 A2998 RMK A01 T01660151  RH  091%=      5-min Rain = 0
KST3 180920Z 32008KT 17/15 A2998 RMK A01 T01660150  RH  090%=      5-min Rain = 0
KST3 180921Z 32008KT 17/15 A2998 RMK A01 T01670150  RH  090%=      5-min Rain = 0
KST3 180922Z 32008KT 17/15 A2998 RMK A01 T01670150  RH  089%=      5-min Rain = 0
KST3 180923Z 32008KT 17/15 A2998 RMK A01 T01680150  RH  089%=      5-min Rain = 0
KST3 180924Z 32007KT 17/15 A2998 RMK A01 T01680151  RH  090%=      5-min Rain = 0
KST3 180925Z 32007KT 17/15 A2998 RMK A01 T01670151  RH  090%=      5-min Rain = 0
KST3 180926Z 32007KT 17/15 A2998 RMK A01 T01660151  RH  091%=      5-min Rain = 0
KST3 180927Z 32007KT 17/15 A2998 RMK A01 T01660152  RH  091%=      5-min Rain = 0
KST3 180928Z 32007KT 17/15 A2998 RMK A01 T01660151  RH  091%=      5-min Rain = 0
KST3 180929Z 32007KT 17/15 A2998 RMK A01 T01660151  RH  091%=      5-min Rain = 0
KST3 180930Z 32009KT 17/15 A2998 RMK A01 T01660151  RH  091%=      5-min Rain = 0
KST3 180931Z 32008KT 17/15 A2998 RMK A01 T01660150  RH  091%=      5-min Rain = 0
KST3 180932Z 31007KT 17/15 A2998 RMK A01 T01660150  RH  091%=      5-min Rain = 0
KST3 180933Z 31006KT 17/15 A2998 RMK A01 T01660149  RH  090%=      5-min Rain = 0
KST3 180934Z 31006KT 17/15 A2998 RMK A01 T01660149  RH  089%=      5-min Rain = 0
KST3 180935Z 31006KT 17/15 A2998 RMK A01 T01670149  RH  089%=      5-min Rain = 0
KST3 180936Z 32006KT 17/15 A2998 RMK A01 T01670149  RH  089%=      5-min Rain = 0
KST3 180937Z 32007KT 17/15 A2998 RMK A01 T01670150  RH  090%=      5-min Rain = 0
KST3 180938Z 32007KT 17/15 A2998 RMK A01 T01670150  RH  090%=      5-min Rain = 0
KST3 180939Z 32006KT 17/15 A2998 RMK A01 T01670150  RH  090%=      5-min Rain = 0
KST3 180940Z 31006KT 17/15 A2998 RMK A01 T01670150  RH  090%=      5-min Rain = 0
KST3 180941Z 31007KT 17/15 A2998 RMK A01 T01670150  RH  090%=      5-min Rain = 0
KST3 180942Z 32007KT 17/15 A2998 RMK A01 T01670150  RH  090%=      5-min Rain = 0
KST3 180943Z 31006KT 17/15 A2998 RMK A01 T01660151  RH  090%=      5-min Rain = 0
KST3 180944Z 31006KT 17/15 A2998 RMK A01 T01660150  RH  091%=      5-min Rain = 0
KST3 180945Z 31006KT 17/15 A2998 RMK A01 T01660150  RH  091%=      5-min Rain = 0
KST3 180946Z 31005KT 17/15 A2999 RMK A01 T01660150  RH  091%=      5-min Rain = 0
KST3 180947Z 32006KT 17/15 A2999 RMK A01 T01660150  RH  090%=      5-min Rain = 0
KST3 180948Z 31006KT 17/15 A2999 RMK A01 T01660150  RH  091%=      5-min Rain = 0
KST3 180949Z 31006KT 17/15 A2999 RMK A01 T01650150  RH  091%=      5-min Rain = 0
KST3 180950Z 31006KT 17/15 A2999 RMK A01 T01650150  RH  091%=      5-min Rain = 0
KST3 180951Z 31007KT 17/15 A2999 RMK A01 T01650150  RH  091%=      5-min Rain = 0
KST3 180952Z 31007KT 17/15 A2999 RMK A01 T01650150  RH  091%=      5-min Rain = 0
KST3 180953Z 32007KT 17/15 A2999 RMK A01 T01650149  RH  090%=      5-min Rain = 0
KST3 180954Z 32007KT 17/15 A2999 RMK A01 T01650149  RH  090%=      5-min Rain = 0
KST3 180955Z 32007KT 17/15 A2999 RMK A01 T01650150  RH  091%=      5-min Rain = 0
KST3 180956Z 32007KT 17/15 A2999 RMK A01 T01650150  RH  091%=      5-min Rain = 0
KST3 180957Z 32008KT 16/15 A2999 RMK A01 T01640150  RH  091%=      5-min Rain = 0
KST3 180958Z 32007KT 16/15 A2999 RMK A01 T01640150  RH  091%=      5-min Rain = 0
KST3 180959Z 32007KT 16/15 A2999 RMK A01 T01640150  RH  091%=      5-min Rain = 0
KST3 181000Z 32007KT 16/15 A2999 RMK A01 T01640150  RH  091%=      5-min Rain = 0
KST3 181001Z 32007KT 16/15 A2999 RMK A01 T01640149  RH  091%=      5-min Rain = 0
KST3 181002Z 32006KT 16/15 A2999 RMK A01 T01640148  RH  090%=      5-min Rain = 0
KST3 181003Z 32007KT 17/15 A2999 RMK A01 T01650147  RH  090%=      5-min Rain = 0
KST3 181004Z 31007KT 17/15 A2999 RMK A01 T01650146  RH  089%=      5-min Rain = 0
KST3 181005Z 31007KT 17/15 A2999 RMK A01 T01660146  RH  088%=      5-min Rain = 0
KST3 181006Z 31007KT 17/15 A2999 RMK A01 T01660146  RH  087%=      5-min Rain = 0
KST3 181007Z 30007KT 17/15 A2999 RMK A01 T01670145  RH  087%=      5-min Rain = 0
KST3 181008Z 30007KT 17/15 A2999 RMK A01 T01680145  RH  086%=      5-min Rain = 0
KST3 181009Z 30008KT 17/14 A2999 RMK A01 T01680144  RH  086%=      5-min Rain = 0
KST3 181010Z 30008KT 17/14 A2999 RMK A01 T01690144  RH  085%=      5-min Rain = 0
KST3 181011Z 30008KT 17/14 A2999 RMK A01 T01690144  RH  085%=      5-min Rain = 0
KST3 181012Z 30008KT 17/14 A2999 RMK A01 T01690144  RH  085%=      5-min Rain = 0
KST3 181013Z 31007KT 17/15 A2999 RMK A01 T01690145  RH  086%=      5-min Rain = 0
KST3 181014Z 31009KT 17/15 A2999 RMK A01 T01680145  RH  086%=      5-min Rain = 0
KST3 181015Z 31008KT 17/14 A2999 RMK A01 T01680144  RH  086%=      5-min Rain = 0
KST3 181016Z 30008KT 17/14 A2999 RMK A01 T01680144  RH  086%=      5-min Rain = 0
KST3 181017Z 30009KT 17/14 A30 RMK A01 T01680143  RH  085%=      5-min Rain = 0
KST3 181018Z 30009KT 17/14 A30 RMK A01 T01690142  RH  084%=      5-min Rain = 0
KST3 181019Z 30008KT 17/14 A30 RMK A01 T01700142  RH  083%=      5-min Rain = 0
KST3 181020Z 29008KT 17/14 A30 RMK A01 T01710143  RH  084%=      5-min Rain = 0
KST3 181021Z 30008KT 17/14 A30 RMK A01 T01700143  RH  084%=      5-min Rain = 0
KST3 181022Z 30009KT 17/14 A30 RMK A01 T01690143  RH  084%=      5-min Rain = 0
KST3 181023Z 30009KT 17/14 A2999 RMK A01 T01690142  RH  084%=      5-min Rain = 0
KST3 181024Z 30009KT 17/14 A2999 RMK A01 T01700141  RH  083%=      5-min Rain = 0
KST3 181025Z 30009KT 17/14 A2999 RMK A01 T01700142  RH  083%=      5-min Rain = 0
KST3 181026Z 30010KT 17/14 A2999 RMK A01 T01700142  RH  083%=      5-min Rain = 0
KST3 181027Z 30010KT 17/14 A2999 RMK A01 T01700142  RH  083%=      5-min Rain = 0
KST3 181028Z 30009KT 17/14 A2999 RMK A01 T01700141  RH  083%=      5-min Rain = 0
KST3 181029Z 30008KT 17/14 A2999 RMK A01 T01700142  RH  084%=      5-min Rain = 0
KST3 181030Z 29008KT 17/14 A30 RMK A01 T01690143  RH  085%=      5-min Rain = 0
KST3 181031Z 29009KT 17/14 A30 RMK A01 T01680142  RH  085%=      5-min Rain = 0
KST3 181032Z 29008KT 17/14 A30 RMK A01 T01670142  RH  085%=      5-min Rain = 0
KST3 181033Z 29009KT 17/14 A30 RMK A01 T01670141  RH  085%=      5-min Rain = 0
KST3 181034Z 29010KT 17/14 A30 RMK A01 T01680142  RH  084%=      5-min Rain = 0
KST3 181035Z 30009KT 17/14 A2999 RMK A01 T01680140  RH  083%=      5-min Rain = 0
KST3 181036Z 30010KT 17/14 A2999 RMK A01 T01700138  RH  082%=      5-min Rain = 0
KST3 181037Z 29011KT 17/14 A2999 RMK A01 T01710138  RH  081%=      5-min Rain = 0
KST3 181038Z 29010KT 17/14 A30 RMK A01 T01720139  RH  081%=      5-min Rain = 0
KST3 181039Z 30010KT 17/14 A2999 RMK A01 T01720140  RH  081%=      5-min Rain = 0
KST3 181040Z 30010KT 17/14 A2999 RMK A01 T01710139  RH  081%=      5-min Rain = 0
KST3 181041Z 29010KT 17/14 A30 RMK A01 T01710139  RH  081%=      5-min Rain = 0
KST3 181042Z 30010KT 17/14 A30 RMK A01 T01710139  RH  082%=      5-min Rain = 0
KST3 181043Z 30010KT 17/14 A30 RMK A01 T01700139  RH  082%=      5-min Rain = 0
KST3 181044Z 29010KT 17/14 A30 RMK A01 T01700140  RH  082%=      5-min Rain = 0
KST3 181045Z 30010KT 17/14 A30 RMK A01 T01700141  RH  083%=      5-min Rain = 0
KST3 181046Z 30010KT 17/14 A30 RMK A01 T01690141  RH  083%=      5-min Rain = 0
KST3 181047Z 30010KT 17/14 A30 RMK A01 T01690139  RH  083%=      5-min Rain = 0
KST3 181048Z 30010KT 17/14 A30 RMK A01 T01690139  RH  083%=      5-min Rain = 0
KST3 181049Z 29009KT 17/14 A30 RMK A01 T01690141  RH  083%=      5-min Rain = 0
KST3 181050Z 29009KT 17/14 A30 RMK A01 T01690141  RH  084%=      5-min Rain = 0
KST3 181051Z 30009KT 17/14 A30 RMK A01 T01670141  RH  085%=      5-min Rain = 0
KST3 181052Z 29008KT 17/14 A30 RMK A01 T01670141  RH  085%=      5-min Rain = 0
KST3 181053Z 30008KT 17/14 A30 RMK A01 T01670142  RH  085%=      5-min Rain = 0
KST3 181054Z 31007KT 17/14 A30 RMK A01 T01660142  RH  086%=      5-min Rain = 0
KST3 181055Z 31008KT 17/14 A30 RMK A01 T01650142  RH  086%=      5-min Rain = 0
KST3 181056Z 31007KT 17/14 A30 RMK A01 T01660142  RH  085%=      5-min Rain = 0
KST3 181057Z 31007KT 17/14 A30 RMK A01 T01670142  RH  086%=      5-min Rain = 0
KST3 181058Z 31007KT 17/14 A30 RMK A01 T01670143  RH  086%=      5-min Rain = 0
KST3 181059Z 31009KT 17/14 A30 RMK A01 T01660142  RH  086%=      5-min Rain = 0
KST3 181100Z 31008KT 17/14 A30 RMK A01 T01660142  RH  086%=      5-min Rain = 0
KST3 181101Z 32008KT 17/14 A30 RMK A01 T01660142  RH  086%=      5-min Rain = 0
KST3 181102Z 32007KT 17/14 A30 RMK A01 T01660143  RH  086%=      5-min Rain = 0
KST3 181103Z 32008KT 17/14 A30 RMK A01 T01650143  RH  087%=      5-min Rain = 0
KST3 181104Z 32008KT 16/14 A30 RMK A01 T01640143  RH  087%=      5-min Rain = 0
KST3 181105Z 32008KT 16/14 A30 RMK A01 T01640143  RH  088%=      5-min Rain = 0
KST3 181106Z 32007KT 16/14 A30 RMK A01 T01640143  RH  087%=      5-min Rain = 0
KST3 181107Z 33006KT 16/14 A30 RMK A01 T01640143  RH  087%=      5-min Rain = 0
KST3 181108Z 33007KT 16/14 A3001 RMK A01 T01640143  RH  088%=      5-min Rain = 0
KST3 181109Z 33006KT 16/14 A3001 RMK A01 T01630143  RH  088%=      5-min Rain = 0
KST3 181110Z 32006KT 16/14 A3001 RMK A01 T01630143  RH  088%=      5-min Rain = 0
KST3 181111Z 32005KT 16/14 A3001 RMK A01 T01620143  RH  088%=      5-min Rain = 0
KST3 181112Z 32005KT 16/14 A3001 RMK A01 T01620143  RH  088%=      5-min Rain = 0
KST3 181113Z 33005KT 16/14 A3001 RMK A01 T01620142  RH  088%=      5-min Rain = 0
KST3 181114Z 33006KT 16/14 A30 RMK A01 T01620142  RH  088%=      5-min Rain = 0
KST3 181115Z 33006KT 16/14 A30 RMK A01 T01610142  RH  089%=      5-min Rain = 0
KST3 181116Z 33006KT 16/14 A30 RMK A01 T01600142  RH  089%=      5-min Rain = 0
KST3 181117Z 33005KT 16/14 A3001 RMK A01 T01600143  RH  089%=      5-min Rain = 0
KST3 181118Z 33005KT 16/14 A3001 RMK A01 T01590142  RH  089%=      5-min Rain = 0
KST3 181119Z 33006KT 16/14 A3001 RMK A01 T01590142  RH  089%=      5-min Rain = 0
KST3 181120Z 33006KT 16/14 A3001 RMK A01 T01590142  RH  090%=      5-min Rain = 0
KST3 181121Z 33006KT 16/14 A3001 RMK A01 T01590142  RH  090%=      5-min Rain = 0
KST3 181122Z 33006KT 16/14 A3001 RMK A01 T01580142  RH  090%=      5-min Rain = 0
KST3 181123Z 33006KT 16/14 A3001 RMK A01 T01580142  RH  090%=      5-min Rain = 0
KST3 181124Z 34006KT 16/14 A3001 RMK A01 T01580142  RH  090%=      5-min Rain = 0
KST3 181125Z 34006KT 16/14 A3001 RMK A01 T01580143  RH  091%=      5-min Rain = 0
KST3 181126Z 34007KT 16/14 A30 RMK A01 T01580143  RH  091%=      5-min Rain = 0
KST3 181127Z 34006KT 16/14 A30 RMK A01 T01570143  RH  091%=      5-min Rain = 0
KST3 181128Z 34006KT 16/14 A30 RMK A01 T01570143  RH  092%=      5-min Rain = 0
KST3 181129Z 34006KT 16/14 A30 RMK A01 T01570144  RH  092%=      5-min Rain = 0
KST3 181130Z 34005KT 16/14 A30 RMK A01 T01570144  RH  092%=      5-min Rain = 0
KST3 181131Z 34006KT 16/14 A30 RMK A01 T01570144  RH  092%=      5-min Rain = 0
KST3 181132Z 34005KT 16/14 A30 RMK A01 T01570144  RH  092%=      5-min Rain = 0
KST3 181133Z 34005KT 16/14 A30 RMK A01 T01570144  RH  092%=      5-min Rain = 0
KST3 181134Z 34006KT 16/14 A30 RMK A01 T01560144  RH  092%=      5-min Rain = 0
KST3 181135Z 34005KT 16/14 A30 RMK A01 T01570143  RH  092%=      5-min Rain = 0
KST3 181136Z 34005KT 16/14 A30 RMK A01 T01570143  RH  092%=      5-min Rain = 0
KST3 181137Z 34005KT 16/14 A30 RMK A01 T01570143  RH  092%=      5-min Rain = 0
KST3 181138Z 33005KT 16/14 A30 RMK A01 T01570143  RH  092%=      5-min Rain = 0
KST3 181139Z 33006KT 16/14 A30 RMK A01 T01570143  RH  091%=      5-min Rain = 0
KST3 181140Z 33006KT 16/14 A3001 RMK A01 T01570143  RH  091%=      5-min Rain = 0
KST3 181141Z 33006KT 16/14 A3001 RMK A01 T01570143  RH  091%=      5-min Rain = 0
KST3 181142Z 32006KT 16/14 A3001 RMK A01 T01570143  RH  091%=      5-min Rain = 0
KST3 181143Z 33006KT 16/14 A3001 RMK A01 T01570143  RH  091%=      5-min Rain = 0
KST3 181144Z 33006KT 16/14 A3001 RMK A01 T01560143  RH  092%=      5-min Rain = 0
KST3 181145Z 33006KT 16/14 A3001 RMK A01 T01560143  RH  092%=      5-min Rain = 0
KST3 181146Z 33005KT 16/14 A30 RMK A01 T01560143  RH  092%=      5-min Rain = 0
KST3 181147Z 33005KT 16/14 A30 RMK A01 T01560143  RH  092%=      5-min Rain = 0
KST3 181148Z 33005KT 16/14 A30 RMK A01 T01560143  RH  092%=      5-min Rain = 0
KST3 181149Z 32005KT 16/14 A30 RMK A01 T01560143  RH  092%=      5-min Rain = 0
KST3 181150Z 32005KT 16/14 A30 RMK A01 T01560143  RH  092%=      5-min Rain = 0
KST3 181151Z 32005KT 16/14 A30 RMK A01 T01560143  RH  091%=      5-min Rain = 0
KST3 181152Z 30003KT 16/14 A30 RMK A01 T01570143  RH  091%=      5-min Rain = 0
KST3 181153Z 29003KT 16/14 A30 RMK A01 T01570143  RH  091%=      5-min Rain = 0
KST3 181154Z 30004KT 16/14 A30 RMK A01 T01560141  RH  091%=      5-min Rain = 0
KST3 181155Z 30005KT 16/14 A30 RMK A01 T01550142  RH  092%=      5-min Rain = 0
KST3 181156Z 31005KT 15/14 A30 RMK A01 T01540142  RH  093%=      5-min Rain = 0
KST3 181157Z 31005KT 15/14 A30 RMK A01 T01540142  RH  093%=      5-min Rain = 0
KST3 181158Z 31006KT 15/14 A30 RMK A01 T01530143  RH  093%=      5-min Rain = 0
KST3 181159Z 31006KT 15/14 A30 RMK A01 T01540143  RH  093%=      5-min Rain = 0
KST3 181200Z 31005KT 16/14 A30 RMK A01 T01550143  RH  093%=      5-min Rain = 0
KST3 181201Z 31005KT 16/14 A30 RMK A01 T01560143  RH  092%=      5-min Rain = 0
KST3 181202Z 31004KT 16/14 A30 RMK A01 T01580143  RH  091%=      5-min Rain = 0
KST3 181203Z 30004KT 16/14 A30 RMK A01 T01590143  RH  091%=      5-min Rain = 0
KST3 181204Z 30004KT 16/14 A30 RMK A01 T01600144  RH  090%=      5-min Rain = 0
KST3 181205Z 30003KT 16/14 A30 RMK A01 T01600144  RH  090%=      5-min Rain = 0
KST3 181206Z 30004KT 16/14 A30 RMK A01 T01600144  RH  090%=      5-min Rain = 0
KST3 181207Z 30004KT 16/14 A30 RMK A01 T01600144  RH  091%=      5-min Rain = 0
KST3 181208Z 30004KT 16/14 A30 RMK A01 T01590144  RH  091%=      5-min Rain = 0
KST3 181209Z 30004KT 16/15 A30 RMK A01 T01590145  RH  091%=      5-min Rain = 0
KST3 181210Z 29005KT 16/15 A30 RMK A01 T01590145  RH  091%=      5-min Rain = 0
KST3 181211Z 29005KT 16/15 A30 RMK A01 T01590145  RH  091%=      5-min Rain = 0
KST3 181212Z 29005KT 16/14 A30 RMK A01 T01590144  RH  091%=      5-min Rain = 0
KST3 181213Z 29005KT 16/14 A30 RMK A01 T01590144  RH  091%=      5-min Rain = 0
KST3 181214Z 28004KT 16/14 A30 RMK A01 T01590143  RH  090%=      5-min Rain = 0
KST3 181215Z 28004KT 16/14 A30 RMK A01 T01600143  RH  090%=      5-min Rain = 0
KST3 181216Z 28004KT 16/14 A30 RMK A01 T01610144  RH  089%=      5-min Rain = 0
KST3 181217Z 28004KT 16/14 A30 RMK A01 T01630144  RH  089%=      5-min Rain = 0
KST3 181218Z 28004KT 16/14 A30 RMK A01 T01640144  RH  088%=      5-min Rain = 0
KST3 181219Z 28004KT 17/14 A30 RMK A01 T01650144  RH  087%=      5-min Rain = 0
KST3 181220Z 28004KT 17/14 A30 RMK A01 T01660144  RH  087%=      5-min Rain = 0
KST3 181221Z 28004KT 17/15 A2999 RMK A01 T01670146  RH  087%=      5-min Rain = 0
KST3 181222Z 28004KT 17/15 A2999 RMK A01 T01670146  RH  087%=      5-min Rain = 0
KST3 181223Z 29004KT 17/15 A2999 RMK A01 T01670147  RH  088%=      5-min Rain = 0
KST3 181224Z 29004KT 17/15 A2999 RMK A01 T01680147  RH  088%=      5-min Rain = 0
KST3 181225Z 29004KT 17/15 A2999 RMK A01 T01680147  RH  087%=      5-min Rain = 0
KST3 181226Z 29004KT 17/15 A30 RMK A01 T01680147  RH  087%=      5-min Rain = 0
KST3 181227Z 30004KT 17/15 A2999 RMK A01 T01690146  RH  086%=      5-min Rain = 0
KST3 181228Z 30003KT 17/15 A2999 RMK A01 T01700147  RH  086%=      5-min Rain = 0
KST3 181229Z 30003KT 17/15 A30 RMK A01 T01710147  RH  086%=      5-min Rain = 0
KST3 181230Z 30004KT 17/15 A30 RMK A01 T01710146  RH  085%=      5-min Rain = 0
KST3 181231Z 30003KT 17/15 A30 RMK A01 T01730147  RH  085%=      5-min Rain = 0
KST3 181232Z 30004KT 17/15 A30 RMK A01 T01730146  RH  084%=      5-min Rain = 0
KST3 181233Z 30003KT 17/15 A30 RMK A01 T01740146  RH  084%=      5-min Rain = 0
KST3 181234Z 30003KT 18/15 A30 RMK A01 T01750146  RH  083%=      5-min Rain = 0
KST3 181235Z 30003KT 18/15 A30 RMK A01 T01750145  RH  083%=      5-min Rain = 0
KST3 181236Z 30003KT 18/15 A30 RMK A01 T01760147  RH  083%=      5-min Rain = 0
KST3 181237Z 30003KT 18/15 A30 RMK A01 T01760147  RH  083%=      5-min Rain = 0
KST3 181238Z 31002KT 18/15 A30 RMK A01 T01760146  RH  083%=      5-min Rain = 0
KST3 181239Z 30003KT 18/15 A30 RMK A01 T01760147  RH  083%=      5-min Rain = 0
KST3 181240Z 30003KT 18/15 A30 RMK A01 T01770147  RH  083%=      5-min Rain = 0
KST3 181241Z 31003KT 18/15 A30 RMK A01 T01770148  RH  083%=      5-min Rain = 0
KST3 181242Z 31003KT 18/15 A30 RMK A01 T01770148  RH  083%=      5-min Rain = 0
KST3 181243Z 31003KT 18/15 A30 RMK A01 T01780148  RH  083%=      5-min Rain = 0
KST3 181244Z 29002KT 18/15 A30 RMK A01 T01790150  RH  083%=      5-min Rain = 0
KST3 181245Z 30003KT 18/15 A30 RMK A01 T01800149  RH  082%=      5-min Rain = 0
KST3 181246Z 29003KT 18/15 A30 RMK A01 T01800149  RH  082%=      5-min Rain = 0
KST3 181247Z 29003KT 18/15 A30 RMK A01 T01810152  RH  083%=      5-min Rain = 0
KST3 181248Z 29002KT 18/15 A30 RMK A01 T01810150  RH  082%=      5-min Rain = 0
KST3 181249Z 30002KT 18/15 A30 RMK A01 T01820150  RH  082%=      5-min Rain = 0
KST3 181250Z 30003KT 18/15 A30 RMK A01 T01830149  RH  081%=      5-min Rain = 0
KST3 181251Z 29003KT 18/15 A30 RMK A01 T01830148  RH  080%=      5-min Rain = 0
KST3 181252Z 29003KT 18/15 A30 RMK A01 T01840148  RH  080%=      5-min Rain = 0
KST3 181253Z 30002KT 18/15 A30 RMK A01 T01840149  RH  080%=      5-min Rain = 0
KST3 181254Z 30003KT 19/15 A30 RMK A01 T01850149  RH  080%=      5-min Rain = 0
KST3 181255Z 30003KT 19/15 A30 RMK A01 T01850148  RH  079%=      5-min Rain = 0
KST3 181256Z 30002KT 19/15 A30 RMK A01 T01860146  RH  078%=      5-min Rain = 0
KST3 181257Z 31003KT 19/15 A30 RMK A01 T01860147  RH  078%=      5-min Rain = 0
KST3 181258Z 32002KT 19/15 A30 RMK A01 T01870148  RH  078%=      5-min Rain = 0
KST3 181259Z 32003KT 19/15 A30 RMK A01 T01870149  RH  078%=      5-min Rain = 0
KST3 181300Z 32003KT 19/15 A30 RMK A01 T01880148  RH  078%=      5-min Rain = 0
KST3 181301Z 33003KT 19/15 A30 RMK A01 T01880148  RH  078%=      5-min Rain = 0
KST3 181302Z 32003KT 19/15 A30 RMK A01 T01890146  RH  076%=      5-min Rain = 0
KST3 181303Z 33003KT 19/15 A30 RMK A01 T01900148  RH  077%=      5-min Rain = 0
KST3 181304Z 33003KT 19/14 A30 RMK A01 T01900142  RH  074%=      5-min Rain = 0
KST3 181305Z 34002KT 19/14 A30 RMK A01 T01910144  RH  074%=      5-min Rain = 0
KST3 181306Z 33002KT 19/15 A30 RMK A01 T01910147  RH  076%=      5-min Rain = 0
KST3 181307Z 33003KT 19/15 A30 RMK A01 T01920150  RH  076%=      5-min Rain = 0
KST3 181308Z 33003KT 19/15 A30 RMK A01 T01930146  RH  074%=      5-min Rain = 0
KST3 181309Z 33003KT 19/15 A30 RMK A01 T01930145  RH  074%=      5-min Rain = 0
KST3 181310Z 33003KT 19/15 A30 RMK A01 T01930147  RH  075%=      5-min Rain = 0
KST3 181311Z 33004KT 19/15 A30 RMK A01 T01930145  RH  074%=      5-min Rain = 0
KST3 181312Z 33004KT 19/15 A3001 RMK A01 T01930146  RH  074%=      5-min Rain = 0
KST3 181313Z 32004KT 19/15 A3001 RMK A01 T01930146  RH  074%=      5-min Rain = 0
KST3 181314Z 34004KT 19/15 A3001 RMK A01 T01940148  RH  075%=      5-min Rain = 0
KST3 181315Z 33004KT 19/14 A3001 RMK A01 T01940143  RH  072%=      5-min Rain = 0
KST3 181316Z 34004KT 19/14 A3001 RMK A01 T01940144  RH  073%=      5-min Rain = 0
KST3 181317Z 35004KT 19/14 A3001 RMK A01 T01940144  RH  073%=      5-min Rain = 0
KST3 181318Z 35003KT 19/15 A3001 RMK A01 T01940145  RH  073%=      5-min Rain = 0
KST3 181319Z 35003KT 20/15 A3001 RMK A01 T01950148  RH  074%=      5-min Rain = 0
KST3 181320Z 35004KT 20/15 A3001 RMK A01 T01950146  RH  073%=      5-min Rain = 0
KST3 181321Z 34004KT 20/15 A3001 RMK A01 T01960148  RH  074%=      5-min Rain = 0
KST3 181322Z 34004KT 20/14 A3001 RMK A01 T01970143  RH  071%=      5-min Rain = 0
KST3 181323Z 34003KT 20/15 A3001 RMK A01 T01970146  RH  073%=      5-min Rain = 0
KST3 181324Z 34003KT 20/14 A3001 RMK A01 T01980144  RH  071%=      5-min Rain = 0
KST3 181325Z 34003KT 20/14 A3001 RMK A01 T01980140  RH  069%=      5-min Rain = 0
KST3 181326Z 35003KT 20/14 A3001 RMK A01 T01980143  RH  071%=      5-min Rain = 0
KST3 181327Z 00003KT 20/14 A3001 RMK A01 T01990138  RH  068%=      5-min Rain = 0
KST3 181328Z 36003KT 20/14 A3001 RMK A01 T01990143  RH  070%=      5-min Rain = 0
KST3 181329Z 35002KT 20/14 A3002 RMK A01 T02000142  RH  069%=      5-min Rain = 0
KST3 181330Z 34002KT 20/14 A3002 RMK A01 T02000141  RH  069%=      5-min Rain = 0
KST3 181331Z 34001KT 20/14 A3002 RMK A01 T02010136  RH  066%=      5-min Rain = 0
KST3 181332Z 34001KT 20/14 A3002 RMK A01 T02020137  RH  066%=      5-min Rain = 0
KST3 181333Z 00000KT 20/14 A3002 RMK A01 T02030138  RH  066%=      5-min Rain = 0
KST3 181334Z 00000KT 21/14 A3002 RMK A01 T02050143  RH  067%=      5-min Rain = 0
KST3 181335Z 00000KT 21/14 A3002 RMK A01 T02060140  RH  066%=      5-min Rain = 0
KST3 181336Z 00000KT 21/14 A3002 RMK A01 T02070140  RH  066%=      5-min Rain = 0
KST3 181337Z 34001KT 21/14 A3002 RMK A01 T02080140  RH  065%=      5-min Rain = 0
KST3 181338Z 22001KT 21/14 A3002 RMK A01 T02080139  RH  064%=      5-min Rain = 0
KST3 181339Z 20000KT 21/14 A3002 RMK A01 T02080139  RH  064%=      5-min Rain = 0
KST3 181340Z 18000KT 21/14 A3002 RMK A01 T02080140  RH  065%=      5-min Rain = 0
KST3 181341Z 17000KT 21/14 A3002 RMK A01 T02080142  RH  066%=      5-min Rain = 0
KST3 181342Z 17001KT 21/14 A3002 RMK A01 T02080142  RH  066%=      5-min Rain = 0
KST3 181343Z 16001KT 21/15 A3002 RMK A01 T02090145  RH  067%=      5-min Rain = 0
KST3 181344Z 16001KT 21/15 A3002 RMK A01 T02080146  RH  067%=      5-min Rain = 0
KST3 181345Z 15001KT 21/15 A3002 RMK A01 T02080148  RH  068%=      5-min Rain = 0
KST3 181346Z 15001KT 21/15 A3003 RMK A01 T02070145  RH  068%=      5-min Rain = 0
KST3 181347Z 00000KT 21/15 A3003 RMK A01 T02060146  RH  068%=      5-min Rain = 0
KST3 181348Z 00000KT 21/15 A3003 RMK A01 T02060146  RH  068%=      5-min Rain = 0
KST3 181349Z 00000KT 21/15 A3003 RMK A01 T02060148  RH  069%=      5-min Rain = 0
KST3 181350Z 15001KT 21/15 A3003 RMK A01 T02060149  RH  070%=      5-min Rain = 0
KST3 181351Z 15000KT 21/15 A3003 RMK A01 T02080149  RH  069%=      5-min Rain = 0
KST3 181352Z 15001KT 21/15 A3003 RMK A01 T02080146  RH  068%=      5-min Rain = 0
KST3 181353Z 15001KT 21/15 A3003 RMK A01 T02090145  RH  067%=      5-min Rain = 0
KST3 181354Z 15000KT 21/15 A3003 RMK A01 T02090145  RH  067%=      5-min Rain = 0
KST3 181355Z 15000KT 21/15 A3003 RMK A01 T02080145  RH  067%=      5-min Rain = 0
KST3 181356Z 23001KT 21/15 A3003 RMK A01 T02090146  RH  067%=      5-min Rain = 0
KST3 181357Z 23001KT 21/14 A3003 RMK A01 T02100139  RH  064%=      5-min Rain = 0
KST3 181358Z 24002KT 21/14 A3003 RMK A01 T02100136  RH  063%=      5-min Rain = 0
KST3 181359Z 22002KT 21/13 A3003 RMK A01 T02090132  RH  061%=      5-min Rain = 0
KST3 181400Z 22001KT 21/14 A3003 RMK A01 T02090135  RH  063%=      5-min Rain = 0
KST3 181401Z 22001KT 21/14 A3003 RMK A01 T02080135  RH  063%=      5-min Rain = 0
KST3 181402Z 21001KT 21/14 A3003 RMK A01 T02090138  RH  064%=      5-min Rain = 0
KST3 181403Z 18002KT 21/14 A3003 RMK A01 T02090142  RH  065%=      5-min Rain = 0
KST3 181404Z 17003KT 21/15 A3003 RMK A01 T02100148  RH  068%=      5-min Rain = 0
KST3 181405Z 19003KT 21/15 A3003 RMK A01 T02100148  RH  068%=      5-min Rain = 0
KST3 181406Z 24002KT 21/14 A3003 RMK A01 T02100140  RH  064%=      5-min Rain = 0
KST3 181407Z 26003KT 21/14 A3003 RMK A01 T02100142  RH  065%=      5-min Rain = 0
KST3 181408Z 26002KT 21/15 A3003 RMK A01 T02100145  RH  066%=      5-min Rain = 0
KST3 181409Z 26001KT 21/14 A3003 RMK A01 T02100143  RH  066%=      5-min Rain = 0
KST3 181410Z 26002KT 21/14 A3003 RMK A01 T02100143  RH  066%=      5-min Rain = 0
KST3 181411Z 25003KT 21/14 A3003 RMK A01 T02100141  RH  065%=      5-min Rain = 0
KST3 181412Z 26003KT 21/14 A3003 RMK A01 T02100141  RH  065%=      5-min Rain = 0
KST3 181413Z 25003KT 21/14 A3003 RMK A01 T02110136  RH  062%=      5-min Rain = 0
KST3 181414Z 26004KT 21/14 A3003 RMK A01 T02110137  RH  063%=      5-min Rain = 0
KST3 181415Z 27005KT 21/14 A3003 RMK A01 T02100135  RH  062%=      5-min Rain = 0
KST3 181416Z 28002KT 21/13 A3003 RMK A01 T02100134  RH  062%=      5-min Rain = 0
KST3 181417Z 29001KT 21/14 A3003 RMK A01 T02100140  RH  064%=      5-min Rain = 0
KST3 181418Z 28000KT 21/14 A3003 RMK A01 T02110140  RH  064%=      5-min Rain = 0
KST3 181419Z 18001KT 21/14 A3003 RMK A01 T02120138  RH  063%=      5-min Rain = 0
KST3 181420Z 18002KT 21/14 A3003 RMK A01 T02130137  RH  062%=      5-min Rain = 0
KST3 181421Z 17001KT 21/14 A3003 RMK A01 T02140135  RH  061%=      5-min Rain = 0
KST3 181422Z 18000KT 21/13 A3003 RMK A01 T02140133  RH  060%=      5-min Rain = 0
KST3 181423Z 20002KT 22/14 A3003 RMK A01 T02150138  RH  061%=      5-min Rain = 0
KST3 181424Z 21001KT 22/14 A3003 RMK A01 T02150139  RH  062%=      5-min Rain = 0
KST3 181425Z 23000KT 22/14 A3003 RMK A01 T02160137  RH  061%=      5-min Rain = 0
KST3 181426Z 18002KT 22/14 A3003 RMK A01 T02180143  RH  062%=      5-min Rain = 0
KST3 181427Z 18004KT 22/14 A3003 RMK A01 T02200143  RH  062%=      5-min Rain = 0
KST3 181428Z 18004KT 22/14 A3003 RMK A01 T02200139  RH  060%=      5-min Rain = 0
KST3 181429Z 20004KT 22/14 A3003 RMK A01 T02210141  RH  061%=      5-min Rain = 0
KST3 181430Z 19003KT 22/14 A3003 RMK A01 T02190139  RH  060%=      5-min Rain = 0
KST3 181431Z 21003KT 22/14 A3003 RMK A01 T02180141  RH  061%=      5-min Rain = 0
KST3 181432Z 21003KT 22/14 A3003 RMK A01 T02180143  RH  062%=      5-min Rain = 0
KST3 181433Z 20003KT 22/14 A3003 RMK A01 T02180142  RH  062%=      5-min Rain = 0
KST3 181434Z 21002KT 22/14 A3003 RMK A01 T02190135  RH  059%=      5-min Rain = 0
KST3 181435Z 22003KT 22/14 A3003 RMK A01 T02180142  RH  062%=      5-min Rain = 0
KST3 181436Z 23001KT 22/14 A3003 RMK A01 T02180138  RH  060%=      5-min Rain = 0
KST3 181437Z 30002KT 22/14 A3004 RMK A01 T02180137  RH  060%=      5-min Rain = 0
KST3 181438Z 33001KT 22/14 A3004 RMK A01 T02180139  RH  061%=      5-min Rain = 0
KST3 181439Z 35000KT 22/14 A3004 RMK A01 T02180141  RH  061%=      5-min Rain = 0
KST3 181440Z 31000KT 22/14 A3004 RMK A01 T02190139  RH  060%=      5-min Rain = 0
KST3 181441Z 28001KT 22/14 A3004 RMK A01 T02190138  RH  060%=      5-min Rain = 0
KST3 181442Z 28000KT 22/14 A3004 RMK A01 T02190140  RH  060%=      5-min Rain = 0
KST3 181443Z 27001KT 22/14 A3004 RMK A01 T02190140  RH  061%=      5-min Rain = 0
KST3 181444Z 28001KT 22/14 A3004 RMK A01 T02190139  RH  060%=      5-min Rain = 0
KST3 181445Z 18001KT 22/14 A3004 RMK A01 T02190139  RH  060%=      5-min Rain = 0
KST3 181446Z 17003KT 22/14 A3004 RMK A01 T02210141  RH  061%=      5-min Rain = 0
KST3 181447Z 17003KT 22/14 A3004 RMK A01 T02210141  RH  060%=      5-min Rain = 0
KST3 181448Z 16002KT 22/14 A3004 RMK A01 T02220135  RH  058%=      5-min Rain = 0
KST3 181449Z 14003KT 22/14 A3004 RMK A01 T02220138  RH  059%=      5-min Rain = 0
KST3 181450Z 14003KT 22/14 A3004 RMK A01 T02210140  RH  060%=      5-min Rain = 0
KST3 181451Z 16002KT 22/15 A3004 RMK A01 T02220146  RH  062%=      5-min Rain = 0
KST3 181452Z 22002KT 22/15 A3004 RMK A01 T02240147  RH  061%=      5-min Rain = 0
KST3 181453Z 21002KT 23/14 A3004 RMK A01 T02250143  RH  060%=      5-min Rain = 0
KST3 181454Z 23004KT 23/14 A3004 RMK A01 T02250143  RH  060%=      5-min Rain = 0
KST3 181455Z 24004KT 23/14 A3004 RMK A01 T02250142  RH  059%=      5-min Rain = 0
KST3 181456Z 24003KT 22/14 A3004 RMK A01 T02240142  RH  060%=      5-min Rain = 0
KST3 181457Z 27004KT 22/14 A3004 RMK A01 T02230141  RH  059%=      5-min Rain = 0
KST3 181458Z 29003KT 22/14 A3004 RMK A01 T02220137  RH  058%=      5-min Rain = 0
KST3 181459Z 20003KT 22/15 A3004 RMK A01 T02220148  RH  063%=      5-min Rain = 0
KST3 181500Z 18002KT 22/15 A3004 RMK A01 T02220150  RH  064%=      5-min Rain = 0
KST3 181501Z 17005KT 22/15 A3004 RMK A01 T02230154  RH  065%=      5-min Rain = 0
KST3 181502Z 17003KT 22/15 A3004 RMK A01 T02220153  RH  065%=      5-min Rain = 0
KST3 181503Z 17004KT 22/15 A3004 RMK A01 T02210151  RH  065%=      5-min Rain = 0
KST3 181504Z 16003KT 22/15 A3004 RMK A01 T02190149  RH  064%=      5-min Rain = 0
KST3 181505Z 15004KT 22/15 A3004 RMK A01 T02190151  RH  065%=      5-min Rain = 0
KST3 181506Z 13004KT 22/15 A3004 RMK A01 T02200151  RH  065%=      5-min Rain = 0
KST3 181507Z 17005KT 22/15 A3004 RMK A01 T02210150  RH  064%=      5-min Rain = 0
KST3 181508Z 19005KT 22/15 A3004 RMK A01 T02230149  RH  063%=      5-min Rain = 0
KST3 181509Z 21005KT 22/14 A3004 RMK A01 T02240143  RH  060%=      5-min Rain = 0
KST3 181510Z 22003KT 22/14 A3004 RMK A01 T02230138  RH  058%=      5-min Rain = 0
KST3 181511Z 17004KT 22/15 A3004 RMK A01 T02220148  RH  063%=      5-min Rain = 0
KST3 181512Z 16004KT 22/15 A3004 RMK A01 T02210154  RH  066%=      5-min Rain = 0
KST3 181513Z 19002KT 22/16 A3004 RMK A01 T02210157  RH  067%=      5-min Rain = 0
KST3 181514Z 18002KT 22/16 A3004 RMK A01 T02220156  RH  066%=      5-min Rain = 0
KST3 181515Z 16005KT 22/16 A3004 RMK A01 T02230155  RH  065%=      5-min Rain = 0
KST3 181516Z 15006KT 22/15 A3004 RMK A01 T02230152  RH  064%=      5-min Rain = 0
KST3 181517Z 17005KT 22/15 A3004 RMK A01 T02220154  RH  065%=      5-min Rain = 0
KST3 181518Z 15004KT 22/15 A3004 RMK A01 T02220150  RH  064%=      5-min Rain = 0
KST3 181519Z 15004KT 22/15 A3004 RMK A01 T02210150  RH  064%=      5-min Rain = 0
KST3 181520Z 16006KT 22/15 A3004 RMK A01 T02200153  RH  066%=      5-min Rain = 0
KST3 181521Z 15005KT 22/15 A3003 RMK A01 T02210150  RH  064%=      5-min Rain = 0
KST3 181522Z 15007KT 22/15 A3003 RMK A01 T02210151  RH  064%=      5-min Rain = 0
KST3 181523Z 15006KT 22/16 A3003 RMK A01 T02220157  RH  066%=      5-min Rain = 0
KST3 181524Z 15004KT 22/15 A3003 RMK A01 T02230151  RH  064%=      5-min Rain = 0
KST3 181525Z 14004KT 22/15 A3003 RMK A01 T02220152  RH  064%=      5-min Rain = 0
KST3 181526Z 13003KT 22/15 A3003 RMK A01 T02220150  RH  064%=      5-min Rain = 0
KST3 181527Z 14005KT 22/16 A3003 RMK A01 T02220156  RH  066%=      5-min Rain = 0
KST3 181528Z 13006KT 22/15 A3003 RMK A01 T02230150  RH  063%=      5-min Rain = 0
KST3 181529Z 16008KT 22/15 A3003 RMK A01 T02230152  RH  064%=      5-min Rain = 0
KST3 181530Z 18007KT 22/15 A3003 RMK A01 T02230152  RH  064%=      5-min Rain = 0
KST3 181531Z 17005KT 22/15 A3003 RMK A01 T02230150  RH  063%=      5-min Rain = 0
KST3 181532Z 20002KT 22/15 A3003 RMK A01 T02230151  RH  064%=      5-min Rain = 0
KST3 181533Z 19003KT 22/15 A3003 RMK A01 T02240154  RH  064%=      5-min Rain = 0
KST3 181534Z 17003KT 23/15 A3003 RMK A01 T02250152  RH  063%=      5-min Rain = 0
KST3 181535Z 17005KT 23/16 A3003 RMK A01 T02260156  RH  065%=      5-min Rain = 0
KST3 181536Z 19006KT 23/16 A3003 RMK A01 T02280157  RH  064%=      5-min Rain = 0
KST3 181537Z 20003KT 23/15 A3003 RMK A01 T02280153  RH  062%=      5-min Rain = 0
KST3 181538Z 17003KT 23/15 A3003 RMK A01 T02270152  RH  063%=      5-min Rain = 0
KST3 181539Z 17003KT 23/15 A3003 RMK A01 T02280151  RH  062%=      5-min Rain = 0
KST3 181540Z 16006KT 23/15 A3003 RMK A01 T02290154  RH  063%=      5-min Rain = 0
KST3 181541Z 16005KT 23/15 A3003 RMK A01 T02280152  RH  062%=      5-min Rain = 0
KST3 181542Z 15006KT 23/15 A3003 RMK A01 T02280153  RH  062%=      5-min Rain = 0
KST3 181543Z 17006KT 23/15 A3003 RMK A01 T02270153  RH  063%=      5-min Rain = 0
KST3 181544Z 17005KT 23/15 A3002 RMK A01 T02280154  RH  063%=      5-min Rain = 0
KST3 181545Z 19004KT 23/15 A3002 RMK A01 T02290152  RH  062%=      5-min Rain = 0
KST3 181546Z 18005KT 23/15 A3002 RMK A01 T02290153  RH  062%=      5-min Rain = 0
KST3 181547Z 17005KT 23/15 A3002 RMK A01 T02290151  RH  061%=      5-min Rain = 0
KST3 181548Z 16005KT 23/15 A3002 RMK A01 T02300150  RH  061%=      5-min Rain = 0
KST3 181549Z 16004KT 23/15 A3002 RMK A01 T02300153  RH  062%=      5-min Rain = 0
KST3 181550Z 18003KT 23/15 A3002 RMK A01 T02310151  RH  061%=      5-min Rain = 0
KST3 181551Z 18003KT 23/15 A3002 RMK A01 T02310152  RH  061%=      5-min Rain = 0
KST3 181552Z 21004KT 23/16 A3002 RMK A01 T02320156  RH  062%=      5-min Rain = 0
KST3 181553Z 20006KT 23/16 A3002 RMK A01 T02340158  RH  062%=      5-min Rain = 0
KST3 181554Z 19007KT 23/16 A3002 RMK A01 T02340155  RH  061%=      5-min Rain = 0
KST3 181555Z 19007KT 24/15 A3002 RMK A01 T02350151  RH  059%=      5-min Rain = 0
KST3 181556Z 21006KT 23/15 A3002 RMK A01 T02330150  RH  060%=      5-min Rain = 0
KST3 181557Z 22007KT 23/16 A3002 RMK A01 T02320155  RH  062%=      5-min Rain = 0
KST3 181558Z 23007KT 23/16 A3002 RMK A01 T02330155  RH  061%=      5-min Rain = 0
KST3 181559Z 23008KT 23/16 A3002 RMK A01 T02340156  RH  061%=      5-min Rain = 0
KST3 181600Z 23003KT 23/15 A3002 RMK A01 T02340147  RH  058%=      5-min Rain = 0
KST3 181601Z 21005KT 23/15 A3002 RMK A01 T02320151  RH  060%=      5-min Rain = 0
KST3 181602Z 21006KT 23/16 A3002 RMK A01 T02340160  RH  063%=      5-min Rain = 0
KST3 181603Z 19005KT 24/16 A3002 RMK A01 T02360158  RH  062%=      5-min Rain = 0
KST3 181604Z 19005KT 24/15 A3002 RMK A01 T02350148  RH  058%=      5-min Rain = 0
KST3 181605Z 19006KT 23/15 A3003 RMK A01 T02340149  RH  059%=      5-min Rain = 0
KST3 181606Z 20007KT 23/15 A3003 RMK A01 T02340153  RH  060%=      5-min Rain = 0
KST3 181607Z 22005KT 23/15 A3003 RMK A01 T02340151  RH  060%=      5-min Rain = 0
KST3 181608Z 22006KT 24/16 A3003 RMK A01 T02350158  RH  062%=      5-min Rain = 0
KST3 181609Z 23007KT 24/16 A3003 RMK A01 T02360156  RH  061%=      5-min Rain = 0
KST3 181610Z 23006KT 24/15 A3003 RMK A01 T02350149  RH  059%=      5-min Rain = 0
KST3 181611Z 24003KT 23/15 A3003 RMK A01 T02330150  RH  060%=      5-min Rain = 0
KST3 181612Z 24003KT 23/15 A3003 RMK A01 T02320148  RH  059%=      5-min Rain = 0
KST3 181613Z 21007KT 23/15 A3003 RMK A01 T02320152  RH  061%=      5-min Rain = 0
KST3 181614Z 20007KT 23/15 A3003 RMK A01 T02330152  RH  060%=      5-min Rain = 0
KST3 181615Z 19007KT 23/15 A3003 RMK A01 T02340152  RH  060%=      5-min Rain = 0
KST3 181616Z 21006KT 24/15 A3002 RMK A01 T02350150  RH  059%=      5-min Rain = 0
KST3 181617Z 22008KT 24/15 A3002 RMK A01 T02350153  RH  060%=      5-min Rain = 0
KST3 181618Z 22008KT 24/15 A3002 RMK A01 T02350153  RH  060%=      5-min Rain = 0
KST3 181619Z 23008KT 24/16 A3002 RMK A01 T02370159  RH  061%=      5-min Rain = 0
KST3 181620Z 22010KT 24/15 A3002 RMK A01 T02390154  RH  059%=      5-min Rain = 0
KST3 181621Z 22009KT 24/15 A3002 RMK A01 T02390153  RH  059%=      5-min Rain = 0
KST3 181622Z 22005KT 24/15 A3002 RMK A01 T02380148  RH  057%=      5-min Rain = 0
KST3 181623Z 22006KT 24/16 A3002 RMK A01 T02370156  RH  061%=      5-min Rain = 0
KST3 181624Z 25006KT 24/16 A3002 RMK A01 T02390158  RH  060%=      5-min Rain = 0
KST3 181625Z 25007KT 24/15 A3002 RMK A01 T02390151  RH  058%=      5-min Rain = 0
KST3 181626Z 24004KT 24/15 A3002 RMK A01 T02370151  RH  058%=      5-min Rain = 0
KST3 181627Z 24002KT 24/15 A3002 RMK A01 T02350149  RH  058%=      5-min Rain = 0
KST3 181628Z 20005KT 24/15 A3002 RMK A01 T02350153  RH  060%=      5-min Rain = 0
KST3 181629Z 23007G12KT 24/15 A3002 RMK A01 T02370154  RH  059%=      5-min Rain = 0
KST3 181630Z 25010KT 24/16 A3002 RMK A01 T02400158  RH  060%=      5-min Rain = 0
KST3 181631Z 25008KT 24/16 A3002 RMK A01 T02420155  RH  058%=      5-min Rain = 0
KST3 181632Z 25006KT 24/15 A3002 RMK A01 T02420153  RH  058%=      5-min Rain = 0
KST3 181633Z 25006KT 24/16 A3002 RMK A01 T02420158  RH  060%=      5-min Rain = 0
KST3 181634Z 25008KT 24/16 A3002 RMK A01 T02430158  RH  059%=      5-min Rain = 0
KST3 181635Z 23006KT 24/16 A3002 RMK A01 T02430156  RH  058%=      5-min Rain = 0
KST3 181636Z 21004KT 24/15 A3002 RMK A01 T02420152  RH  057%=      5-min Rain = 0
KST3 181637Z 20003KT 24/15 A3002 RMK A01 T02400147  RH  056%=      5-min Rain = 0
KST3 181638Z 20003KT 24/15 A3002 RMK A01 T02390149  RH  057%=      5-min Rain = 0
KST3 181639Z 21005KT 24/15 A3002 RMK A01 T02390149  RH  057%=      5-min Rain = 0
KST3 181640Z 23006KT 24/16 A3002 RMK A01 T02400156  RH  059%=      5-min Rain = 0
KST3 181641Z 22007KT 24/16 A3002 RMK A01 T02420156  RH  059%=      5-min Rain = 0
KST3 181642Z 23008KT 24/16 A3002 RMK A01 T02430158  RH  059%=      5-min Rain = 0
KST3 181643Z 23008KT 24/16 A3002 RMK A01 T02440156  RH  058%=      5-min Rain = 0
KST3 181644Z 26006KT 24/16 A3002 RMK A01 T02440156  RH  058%=      5-min Rain = 0
KST3 181645Z 26005KT 25/16 A3002 RMK A01 T02450160  RH  059%=      5-min Rain = 0
KST3 181646Z 23004KT 25/16 A3002 RMK A01 T02460160  RH  059%=      5-min Rain = 0
KST3 181647Z 22007KT 25/16 A3002 RMK A01 T02470164  RH  060%=      5-min Rain = 0
KST3 181648Z 23008KT 25/16 A3002 RMK A01 T02480156  RH  057%=      5-min Rain = 0
KST3 181649Z 23005KT 25/15 A3002 RMK A01 T02460154  RH  057%=      5-min Rain = 0
KST3 181650Z 25004KT 24/16 A3002 RMK A01 T02440155  RH  057%=      5-min Rain = 0
KST3 181651Z 26004KT 24/15 A3002 RMK A01 T02430154  RH  058%=      5-min Rain = 0
KST3 181652Z 31002KT 24/16 A3002 RMK A01 T02430157  RH  059%=      5-min Rain = 0
KST3 181653Z 26006KT 24/16 A3002 RMK A01 T02430158  RH  059%=      5-min Rain = 0
KST3 181654Z 26005KT 24/16 A3002 RMK A01 T02430158  RH  059%=      5-min Rain = 0
KST3 181655Z 23007KT 24/16 A3002 RMK A01 T02440159  RH  059%=      5-min Rain = 0
KST3 181656Z 24007KT 24/16 A3002 RMK A01 T02440157  RH  058%=      5-min Rain = 0
KST3 181657Z 24008KT 25/16 A3002 RMK A01 T02460161  RH  059%=      5-min Rain = 0
KST3 181658Z 23007KT 25/15 A3002 RMK A01 T02460153  RH  056%=      5-min Rain = 0
KST3 181659Z 24005KT 25/16 A3002 RMK A01 T02460158  RH  058%=      5-min Rain = 0
KST3 181700Z 27004KT 25/16 A3002 RMK A01 T02470158  RH  058%=      5-min Rain = 0
KST3 181701Z 27003KT 25/15 A3002 RMK A01 T02480151  RH  055%=      5-min Rain = 0
KST3 181702Z 24004KT 25/15 A3002 RMK A01 T02460151  RH  055%=      5-min Rain = 0
KST3 181703Z 23006KT 25/16 A3002 RMK A01 T02460163  RH  060%=      5-min Rain = 0
KST3 181704Z 22005KT 25/16 A3002 RMK A01 T02470158  RH  058%=      5-min Rain = 0
KST3 181705Z 21005KT 25/16 A3001 RMK A01 T02480158  RH  057%=      5-min Rain = 0
KST3 181706Z 21002KT 25/16 A3001 RMK A01 T02480155  RH  056%=      5-min Rain = 0
KST3 181707Z 18004KT 25/16 A3001 RMK A01 T02470157  RH  057%=      5-min Rain = 0
KST3 181708Z 22006KT 25/15 A3001 RMK A01 T02480154  RH  056%=      5-min Rain = 0
KST3 181709Z 22005KT 25/16 A3001 RMK A01 T02480164  RH  059%=      5-min Rain = 0
KST3 181710Z 25005KT 25/16 A3001 RMK A01 T02510161  RH  057%=      5-min Rain = 0
KST3 181711Z 22007KT 25/16 A3001 RMK A01 T02530164  RH  058%=      5-min Rain = 0
KST3 181712Z 24007KT 25/16 A3001 RMK A01 T02540160  RH  056%=      5-min Rain = 0
KST3 181713Z 22008KT 25/17 A3001 RMK A01 T02530165  RH  058%=      5-min Rain = 0
KST3 181714Z 21010KT 26/16 A3001 RMK A01 T02550162  RH  056%=      5-min Rain = 0
KST3 181715Z 20008KT 25/16 A3001 RMK A01 T02540164  RH  057%=      5-min Rain = 0
KST3 181716Z 20007KT 25/16 A3001 RMK A01 T02540157  RH  055%=      5-min Rain = 0
KST3 181717Z 23009KT 25/16 A3001 RMK A01 T02530160  RH  056%=      5-min Rain = 0
KST3 181718Z 23010KT 25/16 A3001 RMK A01 T02540160  RH  056%=      5-min Rain = 0
KST3 181719Z 22007KT 26/16 A3001 RMK A01 T02550160  RH  056%=      5-min Rain = 0
KST3 181720Z 22006KT 26/16 A3001 RMK A01 T02550156  RH  054%=      5-min Rain = 0
KST3 181721Z 25006G11KT 25/16 A3001 RMK A01 T02540159  RH  056%=      5-min Rain = 0
KST3 181722Z 24011KT 25/16 A3001 RMK A01 T02540162  RH  057%=      5-min Rain = 0
KST3 181723Z 25009KT 26/16 A3001 RMK A01 T02550157  RH  055%=      5-min Rain = 0
KST3 181724Z 26005KT 25/16 A3001 RMK A01 T02530155  RH  054%=      5-min Rain = 0
KST3 181725Z 28005KT 25/16 A3001 RMK A01 T02530156  RH  055%=      5-min Rain = 0
KST3 181726Z 23003KT 25/17 A3001 RMK A01 T02530167  RH  059%=      5-min Rain = 0
KST3 181727Z 22008KT 26/17 A3001 RMK A01 T02570166  RH  057%=      5-min Rain = 0
KST3 181728Z 23010KT 26/16 A3001 RMK A01 T02590160  RH  055%=      5-min Rain = 0
KST3 181729Z 23007KT 26/17 A3001 RMK A01 T02580165  RH  056%=      5-min Rain = 0
KST3 181730Z 23008KT 26/17 A3001 RMK A01 T02590172  RH  059%=      5-min Rain = 0
KST3 181731Z 21010KT 26/16 A3001 RMK A01 T02600162  RH  055%=      5-min Rain = 0
KST3 181732Z 22010KT 26/16 A3001 RMK A01 T02580163  RH  056%=      5-min Rain = 0
KST3 181733Z 21010KT 26/17 A3001 RMK A01 T02580166  RH  057%=      5-min Rain = 0
KST3 181734Z 22011KT 26/17 A3001 RMK A01 T02590166  RH  056%=      5-min Rain = 0
KST3 181735Z 23009KT 26/16 A3001 RMK A01 T02600162  RH  055%=      5-min Rain = 0
KST3 181736Z 24008KT 26/16 A3001 RMK A01 T02590164  RH  056%=      5-min Rain = 0
KST3 181737Z 24006KT 26/16 A3001 RMK A01 T02580162  RH  055%=      5-min Rain = 0
KST3 181738Z 23006KT 26/16 A3001 RMK A01 T02570161  RH  055%=      5-min Rain = 0
KST3 181739Z 24008KT 26/16 A3001 RMK A01 T02560164  RH  057%=      5-min Rain = 0
KST3 181740Z 22009KT 26/17 A3001 RMK A01 T02580170  RH  058%=      5-min Rain = 0
KST3 181741Z 21011KT 26/17 A3001 RMK A01 T02600165  RH  056%=      5-min Rain = 0
KST3 181742Z 21010KT 26/17 A3001 RMK A01 T02600167  RH  056%=      5-min Rain = 0
KST3 181743Z 22010KT 26/17 A3001 RMK A01 T02610168  RH  057%=      5-min Rain = 0
KST3 181744Z 23010KT 26/17 A3001 RMK A01 T02620166  RH  056%=      5-min Rain = 0
KST3 181745Z 24007KT 26/16 A3001 RMK A01 T02600158  RH  053%=      5-min Rain = 0
KST3 181746Z 23009KT 26/16 A3001 RMK A01 T02570164  RH  056%=      5-min Rain = 0
KST3 181747Z 22008KT 26/16 A3001 RMK A01 T02580164  RH  056%=      5-min Rain = 0
KST3 181748Z 21009KT 26/17 A3001 RMK A01 T02590165  RH  056%=      5-min Rain = 0
KST3 181749Z 20008KT 26/16 A3001 RMK A01 T02590162  RH  055%=      5-min Rain = 0
KST3 181750Z 22008KT 26/17 A3001 RMK A01 T02600166  RH  056%=      5-min Rain = 0
KST3 181751Z 21007KT 26/17 A3001 RMK A01 T02610166  RH  056%=      5-min Rain = 0
KST3 181752Z 21007KT 26/17 A3001 RMK A01 T02620166  RH  056%=      5-min Rain = 0
KST3 181753Z 21007KT 26/17 A30 RMK A01 T02620165  RH  055%=      5-min Rain = 0
KST3 181754Z 24011KT 26/17 A3001 RMK A01 T02620170  RH  057%=      5-min Rain = 0
KST3 181755Z 24008KT 26/16 A3001 RMK A01 T02630162  RH  054%=      5-min Rain = 0
KST3 181756Z 25009KT 26/16 A3001 RMK A01 T02600164  RH  055%=      5-min Rain = 0
KST3 181757Z 23010KT 26/17 A3001 RMK A01 T02600166  RH  056%=      5-min Rain = 0
KST3 181758Z 21009KT 26/17 A3001 RMK A01 T02600165  RH  056%=      5-min Rain = 0
KST3 181759Z 21008KT 26/17 A3001 RMK A01 T02600168  RH  057%=      5-min Rain = 0
KST3 181800Z 19008KT 26/17 A3001 RMK A01 T02610168  RH  056%=      5-min Rain = 0
KST3 181801Z 18007KT 26/17 A3001 RMK A01 T02620165  RH  055%=      5-min Rain = 0
KST3 181802Z 20008KT 26/17 A30 RMK A01 T02620168  RH  056%=      5-min Rain = 0
KST3 181803Z 19010KT 26/17 A30 RMK A01 T02630165  RH  055%=      5-min Rain = 0
KST3 181804Z 22012KT 26/17 A30 RMK A01 T02640169  RH  056%=      5-min Rain = 0
KST3 181805Z 23008KT 26/16 A3001 RMK A01 T02630164  RH  055%=      5-min Rain = 0
KST3 181806Z 22006KT 26/17 A30 RMK A01 T02600166  RH  056%=      5-min Rain = 0
KST3 181807Z 19007KT 26/17 A30 RMK A01 T02610168  RH  057%=      5-min Rain = 0
KST3 181808Z 19010KT 26/17 A30 RMK A01 T02630165  RH  055%=      5-min Rain = 0
KST3 181809Z 19011KT 26/16 A30 RMK A01 T02630162  RH  054%=      5-min Rain = 0
KST3 181810Z 17009KT 26/16 A30 RMK A01 T02610161  RH  054%=      5-min Rain = 0
KST3 181811Z 18009KT 26/16 A30 RMK A01 T02600164  RH  055%=      5-min Rain = 0
KST3 181812Z 21011KT 26/17 A30 RMK A01 T02630169  RH  056%=      5-min Rain = 0
KST3 181813Z 20011KT 26/17 A30 RMK A01 T02630167  RH  055%=      5-min Rain = 0
KST3 181814Z 22006KT 26/16 A30 RMK A01 T02620164  RH  055%=      5-min Rain = 0
KST3 181815Z 20006KT 26/17 A30 RMK A01 T02610170  RH  057%=      5-min Rain = 0
KST3 181816Z 20007KT 26/17 A30 RMK A01 T02620170  RH  057%=      5-min Rain = 0
KST3 181817Z 21012KT 27/17 A30 RMK A01 T02650170  RH  056%=      5-min Rain = 0
KST3 181818Z 21010KT 27/17 A30 RMK A01 T02650172  RH  057%=      5-min Rain = 0
KST3 181819Z 22009KT 27/17 A30 RMK A01 T02670172  RH  056%=      5-min Rain = 0
KST3 181820Z 22011KT 27/17 A30 RMK A01 T02670170  RH  055%=      5-min Rain = 0
KST3 181821Z 23011KT 27/17 A30 RMK A01 T02660169  RH  055%=      5-min Rain = 0
KST3 181822Z 21008KT 26/17 A30 RMK A01 T02640167  RH  055%=      5-min Rain = 0
KST3 181823Z 21010KT 26/17 A30 RMK A01 T02640170  RH  056%=      5-min Rain = 0
KST3 181824Z 22010KT 27/17 A30 RMK A01 T02650173  RH  057%=      5-min Rain = 0
KST3 181825Z 21009KT 27/17 A30 RMK A01 T02670171  RH  056%=      5-min Rain = 0
KST3 181826Z 22009KT 27/17 A30 RMK A01 T02660165  RH  054%=      5-min Rain = 0
KST3 181827Z 23009KT 26/17 A30 RMK A01 T02630168  RH  056%=      5-min Rain = 0
KST3 181828Z 22008G14KT 26/17 A30 RMK A01 T02620167  RH  056%=      5-min Rain = 0
KST3 181829Z 23012KT 26/17 A30 RMK A01 T02630173  RH  058%=      5-min Rain = 0
KST3 181830Z 24009KT 27/17 A30 RMK A01 T02650167  RH  055%=      5-min Rain = 0
KST3 181831Z 25006KT 26/17 A30 RMK A01 T02640169  RH  056%=      5-min Rain = 0
KST3 181832Z 24006KT 26/17 A30 RMK A01 T02630169  RH  056%=      5-min Rain = 0
KST3 181833Z 24004KT 26/17 A30 RMK A01 T02630170  RH  057%=      5-min Rain = 0
KST3 181834Z 21009KT 26/18 A30 RMK A01 T02640175  RH  058%=      5-min Rain = 0
KST3 181835Z 22013KT 27/18 A30 RMK A01 T02680177  RH  057%=      5-min Rain = 0
KST3 181836Z 23009KT 27/17 A30 RMK A01 T02690173  RH  056%=      5-min Rain = 0
KST3 181837Z 23008KT 27/17 A30 RMK A01 T02680166  RH  054%=      5-min Rain = 0
KST3 181838Z 22007KT 27/17 A30 RMK A01 T02660171  RH  056%=      5-min Rain = 0
KST3 181839Z 22007G12KT 27/17 A30 RMK A01 T02650171  RH  056%=      5-min Rain = 0
KST3 181840Z 23011KT 27/18 A30 RMK A01 T02660177  RH  058%=      5-min Rain = 0
KST3 181841Z 23010KT 27/17 A30 RMK A01 T02680172  RH  056%=      5-min Rain = 0
KST3 181842Z 26004KT 27/16 A30 RMK A01 T02670164  RH  053%=      5-min Rain = 0
KST3 181843Z 24007KT 26/17 A30 RMK A01 T02640173  RH  057%=      5-min Rain = 0
KST3 181844Z 22004G9KT 26/17 A2999 RMK A01 T02640170  RH  056%=      5-min Rain = 0
KST3 181845Z 22008KT 27/17 A30 RMK A01 T02650172  RH  057%=      5-min Rain = 0
KST3 181846Z 22007KT 27/17 A30 RMK A01 T02660171  RH  056%=      5-min Rain = 0
KST3 181847Z 23008KT 27/17 A2999 RMK A01 T02660170  RH  055%=      5-min Rain = 0
KST3 181848Z 23006KT 27/17 A2999 RMK A01 T02660166  RH  054%=      5-min Rain = 0
KST3 181849Z 24006KT 26/17 A2999 RMK A01 T02640170  RH  056%=      5-min Rain = 0
KST3 181850Z 24009KT 27/17 A2999 RMK A01 T02660174  RH  057%=      5-min Rain = 0
KST3 181851Z 24007KT 27/18 A2999 RMK A01 T02660176  RH  058%=      5-min Rain = 0
KST3 181852Z 23005KT 27/18 A2999 RMK A01 T02690175  RH  056%=      5-min Rain = 0
KST3 181853Z 22009G14KT 27/18 A2999 RMK A01 T02710177  RH  057%=      5-min Rain = 0
KST3 181854Z 22013KT 27/17 A2999 RMK A01 T02720171  RH  054%=      5-min Rain = 0
KST3 181855Z 21013KT 27/18 A2999 RMK A01 T02720177  RH  056%=      5-min Rain = 0
KST3 181856Z 21012KT 27/17 A2999 RMK A01 T02730170  RH  053%=      5-min Rain = 0
KST3 181857Z 21009KT 27/17 A2999 RMK A01 T02710173  RH  055%=      5-min Rain = 0
KST3 181858Z 21010KT 27/18 A2999 RMK A01 T02720178  RH  057%=      5-min Rain = 0
KST3 181859Z 20010KT 27/17 A2999 RMK A01 T02740171  RH  053%=      5-min Rain = 0
KST3 181900Z 20014KT 27/17 A2999 RMK A01 T02730172  RH  054%=      5-min Rain = 0
KST3 181901Z 22012KT 27/17 A2999 RMK A01 T02720174  RH  055%=      5-min Rain = 0
KST3 181902Z 21008KT 27/17 A2999 RMK A01 T02730172  RH  054%=      5-min Rain = 0
KST3 181903Z 23012KT 27/17 A2999 RMK A01 T02730174  RH  055%=      5-min Rain = 0
KST3 181904Z 24012KT 27/17 A2999 RMK A01 T02730174  RH  055%=      5-min Rain = 0
KST3 181905Z 24011KT 27/17 A2999 RMK A01 T02740174  RH  054%=      5-min Rain = 0
KST3 181906Z 24010KT 27/18 A2999 RMK A01 T02740179  RH  056%=      5-min Rain = 0
KST3 181907Z 24008KT 28/18 A2999 RMK A01 T02760179  RH  056%=      5-min Rain = 0
KST3 181908Z 24007KT 28/18 A2999 RMK A01 T02760175  RH  054%=      5-min Rain = 0
KST3 181909Z 23010KT 28/17 A2999 RMK A01 T02750173  RH  054%=      5-min Rain = 0
KST3 181910Z 23007KT 27/17 A2999 RMK A01 T02730167  RH  052%=      5-min Rain = 0
KST3 181911Z 21009KT 27/17 A2999 RMK A01 T02710172  RH  055%=      5-min Rain = 0
KST3 181912Z 20008KT 27/17 A2999 RMK A01 T02720168  RH  053%=      5-min Rain = 0
KST3 181913Z 23006KT 27/17 A2999 RMK A01 T02730169  RH  053%=      5-min Rain = 0
KST3 181914Z 23007KT 27/17 A2999 RMK A01 T02730168  RH  053%=      5-min Rain = 0
KST3 181915Z 21007KT 27/17 A2999 RMK A01 T02730173  RH  055%=      5-min Rain = 0
KST3 181916Z 22007KT 27/18 A2998 RMK A01 T02740176  RH  055%=      5-min Rain = 0
KST3 181917Z 25007KT 28/18 A2998 RMK A01 T02770175  RH  054%=      5-min Rain = 0
KST3 181918Z 24006KT 28/17 A2998 RMK A01 T02760172  RH  053%=      5-min Rain = 0
KST3 181919Z 24005KT 28/17 A2998 RMK A01 T02750174  RH  054%=      5-min Rain = 0
KST3 181920Z 23005KT 27/17 A2998 RMK A01 T02740171  RH  053%=      5-min Rain = 0
KST3 181921Z 23005KT 27/17 A2998 RMK A01 T02740172  RH  054%=      5-min Rain = 0
KST3 181922Z 24006KT 27/18 A2998 RMK A01 T02740178  RH  056%=      5-min Rain = 0
KST3 181923Z 24009KT 28/18 A2998 RMK A01 T02770175  RH  054%=      5-min Rain = 0
KST3 181924Z 24010KT 28/17 A2998 RMK A01 T02780171  RH  052%=      5-min Rain = 0
KST3 181925Z 25012KT 28/17 A2998 RMK A01 T02790169  RH  051%=      5-min Rain = 0
KST3 181926Z 26010KT 28/17 A2998 RMK A01 T02790168  RH  051%=      5-min Rain = 0
KST3 181927Z 26009KT 28/17 A2998 RMK A01 T02780167  RH  051%=      5-min Rain = 0
KST3 181928Z 28006KT 28/17 A2998 RMK A01 T02770169  RH  052%=      5-min Rain = 0
KST3 181929Z 24007KT 28/17 A2998 RMK A01 T02770174  RH  053%=      5-min Rain = 0
KST3 181930Z 23007KT 28/18 A2998 RMK A01 T02780178  RH  054%=      5-min Rain = 0
KST3 181931Z 24008KT 28/17 A2998 RMK A01 T02810171  RH  051%=      5-min Rain = 0
KST3 181932Z 24010KT 28/17 A2998 RMK A01 T02810172  RH  051%=      5-min Rain = 0
KST3 181933Z 24014KT 28/18 A2998 RMK A01 T02810176  RH  053%=      5-min Rain = 0
KST3 181934Z 25012KT 28/17 A2998 RMK A01 T02820174  RH  052%=      5-min Rain = 0
KST3 181935Z 24010KT 28/18 A2998 RMK A01 T02810176  RH  053%=      5-min Rain = 0
KST3 181936Z 21011KT 28/18 A2998 RMK A01 T02820178  RH  053%=      5-min Rain = 0
KST3 181937Z 22008KT 28/17 A2998 RMK A01 T02830171  RH  051%=      5-min Rain = 0
KST3 181938Z 17006KT 28/17 A2998 RMK A01 T02820169  RH  050%=      5-min Rain = 0
KST3 181939Z 21005G11KT 28/17 A2998 RMK A01 T02820170  RH  051%=      5-min Rain = 0
KST3 181940Z 21014KT 28/18 A2998 RMK A01 T02840179  RH  053%=      5-min Rain = 0
KST3 181941Z 22012KT 29/17 A2998 RMK A01 T02850173  RH  051%=      5-min Rain = 0
KST3 181942Z 22007KT 28/17 A2998 RMK A01 T02830170  RH  050%=      5-min Rain = 0
KST3 181943Z 20009KT 28/18 A2998 RMK A01 T02810176  RH  053%=      5-min Rain = 0
KST3 181944Z 19007KT 28/17 A2998 RMK A01 T02840172  RH  051%=      5-min Rain = 0
KST3 181945Z 21011KT 28/18 A2997 RMK A01 T02840175  RH  052%=      5-min Rain = 0
KST3 181946Z 22011KT 29/17 A2998 RMK A01 T02850173  RH  051%=      5-min Rain = 0
KST3 181947Z 21007KT 29/17 A2998 RMK A01 T02860173  RH  050%=      5-min Rain = 0
KST3 181948Z 22010KT 29/17 A2997 RMK A01 T02850173  RH  051%=      5-min Rain = 0
KST3 181949Z 21011KT 29/17 A2997 RMK A01 T02850172  RH  051%=      5-min Rain = 0
KST3 181950Z 23012KT 28/17 A2997 RMK A01 T02830172  RH  051%=      5-min Rain = 0
KST3 181951Z 24009KT 28/17 A2997 RMK A01 T02820172  RH  051%=      5-min Rain = 0
KST3 181952Z 24013KT 28/17 A2997 RMK A01 T02810172  RH  051%=      5-min Rain = 0
KST3 181953Z 23012KT 28/18 A2997 RMK A01 T02820176  RH  053%=      5-min Rain = 0
KST3 181954Z 24007KT 28/17 A2997 RMK A01 T02820168  RH  050%=      5-min Rain = 0
KST3 181955Z 25005KT 28/16 A2997 RMK A01 T02790163  RH  049%=      5-min Rain = 0
KST3 181956Z 22005KT 28/17 A2997 RMK A01 T02770172  RH  053%=      5-min Rain = 0
KST3 181957Z 23007KT 28/17 A2997 RMK A01 T02780170  RH  052%=      5-min Rain = 0
KST3 181958Z 22009KT 28/18 A2997 RMK A01 T02800177  RH  054%=      5-min Rain = 0
KST3 181959Z 21013KT 28/18 A2997 RMK A01 T02820176  RH  053%=      5-min Rain = 0
KST3 182000Z 22010KT 28/18 A2997 RMK A01 T02840178  RH  053%=      5-min Rain = 0
KST3 182001Z 21010KT 29/18 A2997 RMK A01 T02860183  RH  054%=      5-min Rain = 0
KST3 182002Z 21011KT 29/18 A2997 RMK A01 T02880178  RH  051%=      5-min Rain = 0
KST3 182003Z 21009KT 29/18 A2997 RMK A01 T02880176  RH  051%=      5-min Rain = 0
KST3 182004Z 22008KT 29/17 A2997 RMK A01 T02860172  RH  050%=      5-min Rain = 0
KST3 182005Z 23005KT 29/17 A2997 RMK A01 T02850173  RH  051%=      5-min Rain = 0
KST3 182006Z 23004KT 28/17 A2997 RMK A01 T02830169  RH  050%=      5-min Rain = 0
KST3 182007Z 20009KT 28/18 A2997 RMK A01 T02820175  RH  052%=      5-min Rain = 0
KST3 182008Z 20008KT 28/18 A2997 RMK A01 T02830175  RH  052%=      5-min Rain = 0
KST3 182009Z 20008KT 29/18 A2997 RMK A01 T02850178  RH  053%=      5-min Rain = 0
KST3 182010Z 20008KT 29/17 A2997 RMK A01 T02860171  RH  050%=      5-min Rain = 0
KST3 182011Z 21009KT 29/17 A2997 RMK A01 T02850174  RH  051%=      5-min Rain = 0
KST3 182012Z 21010KT 29/17 A2997 RMK A01 T02850173  RH  051%=      5-min Rain = 0
KST3 182013Z 22010KT 29/17 A2996 RMK A01 T02850172  RH  050%=      5-min Rain = 0
KST3 182014Z 23006KT 28/17 A2996 RMK A01 T02840166  RH  049%=      5-min Rain = 0
KST3 182015Z 22009KT 28/18 A2996 RMK A01 T02830179  RH  053%=      5-min Rain = 0
KST3 182016Z 21012KT 29/18 A2996 RMK A01 T02860178  RH  052%=      5-min Rain = 0
KST3 182017Z 24011KT 29/18 A2996 RMK A01 T02870177  RH  051%=      5-min Rain = 0
KST3 182018Z 23008KT 29/18 A2996 RMK A01 T02880175  RH  051%=      5-min Rain = 0
KST3 182019Z 25009KT 29/18 A2996 RMK A01 T02890180  RH  052%=      5-min Rain = 0
KST3 182020Z 25007KT 29/18 A2996 RMK A01 T02890177  RH  051%=      5-min Rain = 0
KST3 182021Z 22008KT 29/17 A2996 RMK A01 T02870172  RH  050%=      5-min Rain = 0
KST3 182022Z 20009KT 29/17 A2996 RMK A01 T02860169  RH  049%=      5-min Rain = 0
KST3 182023Z 23007KT 29/17 A2996 RMK A01 T02850168  RH  049%=      5-min Rain = 0
KST3 182024Z 23008KT 28/18 A2996 RMK A01 T02840175  RH  052%=      5-min Rain = 0
KST3 182025Z 24010KT 28/17 A2996 RMK A01 T02830171  RH  050%=      5-min Rain = 0
KST3 182026Z 24009KT 28/17 A2996 RMK A01 T02790168  RH  051%=      5-min Rain = 0
KST3 182027Z 25006KT 28/16 A2996 RMK A01 T02750164  RH  051%=      5-min Rain = 0
KST3 182028Z 25006KT 27/17 A2996 RMK A01 T02730171  RH  054%=      5-min Rain = 0
KST3 182029Z 26006KT 27/17 A2996 RMK A01 T02710169  RH  054%=      5-min Rain = 0
KST3 182030Z 21008KT 27/17 A2996 RMK A01 T02700170  RH  054%=      5-min Rain = 0
KST3 182031Z 17007KT 27/17 A2996 RMK A01 T02700170  RH  054%=      5-min Rain = 0
KST3 182032Z 18006KT 27/17 A2996 RMK A01 T02730171  RH  054%=      5-min Rain = 0
KST3 182033Z 17006KT 28/17 A2996 RMK A01 T02750170  RH  053%=      5-min Rain = 0
KST3 182034Z 15006KT 28/17 A2996 RMK A01 T02790167  RH  051%=      5-min Rain = 0
KST3 182035Z 19006KT 28/17 A2996 RMK A01 T02790168  RH  051%=      5-min Rain = 0
KST3 182036Z 20004KT 28/17 A2996 RMK A01 T02790171  RH  052%=      5-min Rain = 0
KST3 182037Z 20005KT 28/17 A2995 RMK A01 T02790173  RH  052%=      5-min Rain = 0
KST3 182038Z 20008KT 28/18 A2995 RMK A01 T02820175  RH  052%=      5-min Rain = 0
KST3 182039Z 19010KT 29/18 A2995 RMK A01 T02870180  RH  053%=      5-min Rain = 0
KST3 182040Z 20012KT 29/17 A2995 RMK A01 T02900174  RH  049%=      5-min Rain = 0
KST3 182041Z 20011KT 29/18 A2995 RMK A01 T02900175  RH  050%=      5-min Rain = 0
KST3 182042Z 20010KT 29/17 A2995 RMK A01 T02880173  RH  050%=      5-min Rain = 0
KST3 182043Z 20010KT 29/17 A2995 RMK A01 T02880173  RH  050%=      5-min Rain = 0
KST3 182044Z 22007KT 29/17 A2995 RMK A01 T02880173  RH  050%=      5-min Rain = 0
KST3 182045Z 20010KT 29/18 A2995 RMK A01 T02880176  RH  051%=      5-min Rain = 0
KST3 182046Z 19011KT 29/17 A2995 RMK A01 T02880170  RH  049%=      5-min Rain = 0
KST3 182047Z 21010KT 29/17 A2995 RMK A01 T02870171  RH  049%=      5-min Rain = 0
KST3 182048Z 20011KT 29/17 A2995 RMK A01 T02870173  RH  050%=      5-min Rain = 0
KST3 182049Z 19008KT 29/18 A2995 RMK A01 T02860176  RH  051%=      5-min Rain = 0
KST3 182050Z 17007KT 29/18 A2995 RMK A01 T02900176  RH  050%=      5-min Rain = 0
KST3 182051Z 17008KT 29/17 A2995 RMK A01 T02910172  RH  049%=      5-min Rain = 0
KST3 182052Z 18009KT 29/17 A2995 RMK A01 T02900169  RH  048%=      5-min Rain = 0
KST3 182053Z 18008KT 29/17 A2994 RMK A01 T02890167  RH  048%=      5-min Rain = 0
KST3 182054Z 20008KT 29/17 A2995 RMK A01 T02870168  RH  049%=      5-min Rain = 0
KST3 182055Z 20008KT 29/17 A2995 RMK A01 T02870173  RH  050%=      5-min Rain = 0
KST3 182056Z 20006KT 29/17 A2994 RMK A01 T02870166  RH  048%=      5-min Rain = 0
KST3 182057Z 19009KT 29/17 A2994 RMK A01 T02850171  RH  050%=      5-min Rain = 0
KST3 182058Z 19010KT 29/17 A2994 RMK A01 T02870174  RH  050%=      5-min Rain = 0
KST3 182059Z 19008KT 29/17 A2994 RMK A01 T02890169  RH  048%=      5-min Rain = 0
KST3 182100Z 19006KT 29/17 A2994 RMK A01 T02900170  RH  048%=      5-min Rain = 0
KST3 182101Z 19005KT 29/17 A2994 RMK A01 T02890171  RH  049%=      5-min Rain = 0
KST3 182102Z 21007KT 29/17 A2994 RMK A01 T02900173  RH  049%=      5-min Rain = 0
KST3 182103Z 22007KT 29/17 A2994 RMK A01 T02900173  RH  049%=      5-min Rain = 0
KST3 182104Z 23006KT 29/17 A2994 RMK A01 T02900168  RH  048%=      5-min Rain = 0
KST3 182105Z 22005KT 29/17 A2994 RMK A01 T02880170  RH  049%=      5-min Rain = 0
KST3 182106Z 22002KT 29/17 A2994 RMK A01 T02880170  RH  049%=      5-min Rain = 0
KST3 182107Z 23002KT 29/17 A2994 RMK A01 T02880171  RH  049%=      5-min Rain = 0
KST3 182108Z 20003KT 29/17 A2994 RMK A01 T02890170  RH  049%=      5-min Rain = 0
KST3 182109Z 19005KT 29/17 A2994 RMK A01 T02890167  RH  048%=      5-min Rain = 0
KST3 182110Z 19005KT 29/17 A2994 RMK A01 T02890167  RH  048%=      5-min Rain = 0
KST3 182111Z 20006KT 29/17 A2993 RMK A01 T02890166  RH  047%=      5-min Rain = 0
KST3 182112Z 21005KT 29/17 A2993 RMK A01 T02870170  RH  049%=      5-min Rain = 0
KST3 182113Z 23009KT 29/18 A2993 RMK A01 T02890177  RH  051%=      5-min Rain = 0
KST3 182114Z 23010KT 29/17 A2993 RMK A01 T02910169  RH  048%=      5-min Rain = 0
KST3 182115Z 24007KT 29/17 A2993 RMK A01 T02900167  RH  047%=      5-min Rain = 0
KST3 182116Z 24007KT 29/18 A2993 RMK A01 T02900178  RH  051%=      5-min Rain = 0
KST3 182117Z 22008KT 29/17 A2993 RMK A01 T02920172  RH  048%=      5-min Rain = 0
KST3 182118Z 21006KT 29/18 A2993 RMK A01 T02930176  RH  049%=      5-min Rain = 0
KST3 182119Z 18008KT 30/18 A2992 RMK A01 T02950176  RH  049%=      5-min Rain = 0
KST3 182120Z 23009KT 30/18 A2993 RMK A01 T02970180  RH  049%=      5-min Rain = 0
KST3 182121Z 21007KT 30/17 A2993 RMK A01 T02960174  RH  048%=      5-min Rain = 0
KST3 182122Z 19010KT 29/17 A2992 RMK A01 T02920171  RH  048%=      5-min Rain = 0
KST3 182123Z 20010KT 29/17 A2992 RMK A01 T02880165  RH  048%=      5-min Rain = 0
KST3 182124Z 20008KT 29/17 A2992 RMK A01 T02860167  RH  049%=      5-min Rain = 0
KST3 182125Z 20005KT 29/17 A2992 RMK A01 T02850171  RH  050%=      5-min Rain = 0
KST3 182126Z 20008KT 28/17 A2992 RMK A01 T02840172  RH  051%=      5-min Rain = 0
KST3 182127Z 20011G16KT 28/17 A2992 RMK A01 T02840170  RH  050%=      5-min Rain = 0
KST3 182128Z 21012KT 28/17 A2992 RMK A01 T02830167  RH  049%=      5-min Rain = 0
KST3 182129Z 20010KT 28/17 A2992 RMK A01 T02810165  RH  049%=      5-min Rain = 0
KST3 182130Z 21011KT 28/17 A2992 RMK A01 T02810165  RH  049%=      5-min Rain = 0
KST3 182131Z 20011KT 28/16 A2992 RMK A01 T02820164  RH  049%=      5-min Rain = 0
KST3 182132Z 21013KT 29/17 A2992 RMK A01 T02860167  RH  049%=      5-min Rain = 0
KST3 182133Z 21012KT 29/17 A2992 RMK A01 T02900168  RH  048%=      5-min Rain = 0
KST3 182134Z 20011KT 29/17 A2991 RMK A01 T02920171  RH  048%=      5-min Rain = 0
KST3 182135Z 20012KT 30/17 A2991 RMK A01 T02950166  RH  046%=      5-min Rain = 0
KST3 182136Z 20009KT 30/16 A2991 RMK A01 T02950162  RH  045%=      5-min Rain = 0
KST3 182137Z 20010KT 30/17 A2991 RMK A01 T02950166  RH  046%=      5-min Rain = 0
KST3 182138Z 20010KT 29/17 A2991 RMK A01 T02940166  RH  046%=      5-min Rain = 0
KST3 182139Z 20010KT 30/17 A2991 RMK A01 T02950168  RH  046%=      5-min Rain = 0
KST3 182140Z 19009KT 30/17 A2991 RMK A01 T02960165  RH  045%=      5-min Rain = 0
KST3 182141Z 21011KT 30/17 A2991 RMK A01 T02960173  RH  047%=      5-min Rain = 0
KST3 182142Z 22013KT 30/17 A2991 RMK A01 T02980169  RH  046%=      5-min Rain = 0
KST3 182143Z 22011KT 30/17 A2991 RMK A01 T02960165  RH  045%=      5-min Rain = 0
KST3 182144Z 22011KT 30/17 A2991 RMK A01 T02950167  RH  046%=      5-min Rain = 0
KST3 182145Z 23007KT 29/17 A2991 RMK A01 T02940165  RH  046%=      5-min Rain = 0
KST3 182146Z 24007KT 29/17 A2991 RMK A01 T02940171  RH  048%=      5-min Rain = 0
KST3 182147Z 22005KT 30/17 A2991 RMK A01 T02950170  RH  047%=      5-min Rain = 0
KST3 182148Z 21005KT 30/17 A2991 RMK A01 T02960173  RH  048%=      5-min Rain = 0
KST3 182149Z 19006KT 30/17 A2991 RMK A01 T02980172  RH  047%=      5-min Rain = 0
KST3 182150Z 17003KT 30/17 A2991 RMK A01 T03000166  RH  045%=      5-min Rain = 0
KST3 182151Z 17002KT 30/16 A2991 RMK A01 T02990163  RH  044%=      5-min Rain = 0
KST3 182152Z 20004KT 30/17 A2991 RMK A01 T02990173  RH  047%=      5-min Rain = 0
KST3 182153Z 22007KT 30/18 A2991 RMK A01 T03010176  RH  047%=      5-min Rain = 0
KST3 182154Z 23005KT 30/17 A2991 RMK A01 T03010169  RH  045%=      5-min Rain = 0
KST3 182155Z 18004KT 30/17 A2991 RMK A01 T02990171  RH  046%=      5-min Rain = 0
KST3 182156Z 18006KT 30/17 A2991 RMK A01 T02990165  RH  044%=      5-min Rain = 0
KST3 182157Z 18005KT 30/16 A2991 RMK A01 T02980163  RH  044%=      5-min Rain = 0
KST3 182158Z 19005KT 30/16 A2991 RMK A01 T02980162  RH  044%=      5-min Rain = 0
KST3 182159Z 18004KT 30/17 A2991 RMK A01 T02980169  RH  046%=      5-min Rain = 0
KST3 182200Z 21006KT 30/17 A2991 RMK A01 T03000174  RH  047%=      5-min Rain = 0
KST3 182201Z 22006KT 30/17 A2991 RMK A01 T03010166  RH  044%=      5-min Rain = 0
KST3 182202Z 21004KT 30/17 A2991 RMK A01 T02990166  RH  045%=      5-min Rain = 0
KST3 182203Z 22003KT 30/17 A2991 RMK A01 T02980165  RH  045%=      5-min Rain = 0
KST3 182204Z 24005KT 30/17 A2991 RMK A01 T02980172  RH  047%=      5-min Rain = 0
KST3 182205Z 21006KT 30/17 A2991 RMK A01 T02980171  RH  047%=      5-min Rain = 0
KST3 182206Z 19007KT 30/17 A2991 RMK A01 T02980169  RH  046%=      5-min Rain = 0
KST3 182207Z 22007KT 30/17 A2991 RMK A01 T02980170  RH  046%=      5-min Rain = 0
KST3 182208Z 22006KT 30/17 A2991 RMK A01 T02980174  RH  047%=      5-min Rain = 0
KST3 182209Z 25006KT 30/17 A2991 RMK A01 T02980173  RH  047%=      5-min Rain = 0
KST3 182210Z 24008G13KT 30/17 A299 RMK A01 T02980173  RH  047%=      5-min Rain = 0
KST3 182211Z 21007KT 30/18 A299 RMK A01 T02980177  RH  048%=      5-min Rain = 0
KST3 182212Z 22011KT 30/17 A299 RMK A01 T02980173  RH  047%=      5-min Rain = 0
KST3 182213Z 21009KT 30/17 A299 RMK A01 T02980170  RH  046%=      5-min Rain = 0
KST3 182214Z 21009KT 30/17 A299 RMK A01 T02970170  RH  046%=      5-min Rain = 0
KST3 182215Z 22007KT 30/17 A299 RMK A01 T02970171  RH  047%=      5-min Rain = 0
KST3 182216Z 22006KT 30/17 A299 RMK A01 T02970171  RH  047%=      5-min Rain = 0
KST3 182217Z 21005KT 30/17 A299 RMK A01 T02970172  RH  047%=      5-min Rain = 0
KST3 182218Z 23005KT 30/17 A299 RMK A01 T02980174  RH  048%=      5-min Rain = 0
KST3 182219Z 23005KT 30/17 A299 RMK A01 T02980171  RH  046%=      5-min Rain = 0
KST3 182220Z 22007KT 30/17 A299 RMK A01 T02980172  RH  047%=      5-min Rain = 0
KST3 182221Z 24005KT 30/17 A299 RMK A01 T02980166  RH  045%=      5-min Rain = 0
KST3 182222Z 23004KT 30/17 A299 RMK A01 T02970166  RH  045%=      5-min Rain = 0
KST3 182223Z 23002KT 30/16 A299 RMK A01 T02960161  RH  044%=      5-min Rain = 0
KST3 182224Z 21004KT 30/17 A299 RMK A01 T02960172  RH  047%=      5-min Rain = 0
KST3 182225Z 19003KT 30/17 A299 RMK A01 T02980166  RH  045%=      5-min Rain = 0
KST3 182226Z 21002KT 30/17 A299 RMK A01 T02980166  RH  045%=      5-min Rain = 0
KST3 182227Z 23006KT 30/18 A299 RMK A01 T02990179  RH  049%=      5-min Rain = 0
KST3 182228Z 23007KT 30/18 A299 RMK A01 T03010176  RH  047%=      5-min Rain = 0
KST3 182229Z 22007KT 30/17 A299 RMK A01 T03020169  RH  045%=      5-min Rain = 0
KST3 182230Z 25005KT 30/17 A299 RMK A01 T03000166  RH  044%=      5-min Rain = 0
KST3 182231Z 28003KT 30/17 A299 RMK A01 T02990169  RH  046%=      5-min Rain = 0
KST3 182232Z 22004KT 30/17 A299 RMK A01 T02990172  RH  047%=      5-min Rain = 0
KST3 182233Z 21004KT 30/17 A299 RMK A01 T03000167  RH  045%=      5-min Rain = 0
KST3 182234Z 20004KT 30/17 A299 RMK A01 T03010169  RH  045%=      5-min Rain = 0
KST3 182235Z 22007KT 30/17 A299 RMK A01 T03020171  RH  045%=      5-min Rain = 0
KST3 182236Z 22005KT 30/16 A299 RMK A01 T03020163  RH  043%=      5-min Rain = 0
KST3 182237Z 23002KT 30/17 A299 RMK A01 T03000167  RH  045%=      5-min Rain = 0
KST3 182238Z 23003KT 30/17 A299 RMK A01 T03000168  RH  045%=      5-min Rain = 0
KST3 182239Z 24003KT 30/17 A299 RMK A01 T03010172  RH  046%=      5-min Rain = 0
KST3 182240Z 22005KT 30/17 A299 RMK A01 T03020173  RH  046%=      5-min Rain = 0
KST3 182241Z 20003KT 30/16 A299 RMK A01 T03020164  RH  043%=      5-min Rain = 0
KST3 182242Z 19004KT 30/17 A299 RMK A01 T03020169  RH  045%=      5-min Rain = 0
KST3 182243Z 18004KT 30/17 A299 RMK A01 T03020167  RH  044%=      5-min Rain = 0
KST3 182244Z 18003KT 30/17 A299 RMK A01 T03030169  RH  045%=      5-min Rain = 0
KST3 182245Z 16004KT 31/17 A299 RMK A01 T03050165  RH  043%=      5-min Rain = 0
KST3 182246Z 19002KT 31/16 A2989 RMK A01 T03050163  RH  042%=      5-min Rain = 0
KST3 182247Z 21002KT 30/17 A2989 RMK A01 T03040171  RH  045%=      5-min Rain = 0
KST3 182248Z 20003KT 31/17 A2989 RMK A01 T03050167  RH  043%=      5-min Rain = 0
KST3 182249Z 16005KT 31/17 A2989 RMK A01 T03060166  RH  043%=      5-min Rain = 0
KST3 182250Z 16004KT 31/16 A2989 RMK A01 T03060160  RH  041%=      5-min Rain = 0
KST3 182251Z 20005KT 31/16 A299 RMK A01 T03060164  RH  042%=      5-min Rain = 0
KST3 182252Z 18007KT 31/16 A299 RMK A01 T03070164  RH  042%=      5-min Rain = 0
KST3 182253Z 17007KT 31/16 A299 RMK A01 T03070158  RH  041%=      5-min Rain = 0
KST3 182254Z 15008KT 31/16 A299 RMK A01 T03080159  RH  041%=      5-min Rain = 0
KST3 182255Z 16009KT 31/16 A299 RMK A01 T03070158  RH  041%=      5-min Rain = 0
KST3 182256Z 16008KT 31/16 A299 RMK A01 T03060159  RH  041%=      5-min Rain = 0
KST3 182257Z 17008KT 31/16 A299 RMK A01 T03060160  RH  042%=      5-min Rain = 0
KST3 182258Z 17005KT 31/16 A299 RMK A01 T03050155  RH  040%=      5-min Rain = 0
KST3 182259Z 16004KT 31/16 A299 RMK A01 T03050157  RH  041%=      5-min Rain = 0
KST3 182300Z 13004KT 31/16 A299 RMK A01 T03050158  RH  041%=      5-min Rain = 0
KST3 182301Z 14006KT 31/16 A2989 RMK A01 T03060161  RH  042%=      5-min Rain = 0
KST3 182302Z 15005KT 31/16 A2989 RMK A01 T03060155  RH  040%=      5-min Rain = 0
KST3 182303Z 16003KT 31/15 A2989 RMK A01 T03050154  RH  040%=      5-min Rain = 0
KST3 182304Z 17005KT 31/16 A2989 RMK A01 T03050163  RH  042%=      5-min Rain = 0
KST3 182305Z 17005KT 31/16 A2989 RMK A01 T03070160  RH  041%=      5-min Rain = 0
KST3 182306Z 18004KT 31/16 A2989 RMK A01 T03070160  RH  041%=      5-min Rain = 0
KST3 182307Z 15005KT 31/16 A2989 RMK A01 T03080160  RH  041%=      5-min Rain = 0
KST3 182308Z 14004KT 31/16 A2989 RMK A01 T03080161  RH  041%=      5-min Rain = 0
KST3 182309Z 13005KT 31/16 A2989 RMK A01 T03080159  RH  041%=      5-min Rain = 0
KST3 182310Z 14006KT 31/16 A2989 RMK A01 T03070158  RH  041%=      5-min Rain = 0
KST3 182311Z 15004KT 31/16 A2989 RMK A01 T03070156  RH  040%=      5-min Rain = 0
KST3 182312Z 19003KT 31/15 A2989 RMK A01 T03050153  RH  040%=      5-min Rain = 0
KST3 182313Z 20002KT 30/16 A2989 RMK A01 T03040155  RH  040%=      5-min Rain = 0
KST3 182314Z 18003G8KT 30/16 A2988 RMK A01 T03040158  RH  041%=      5-min Rain = 0
KST3 182315Z 15004KT 31/16 A2988 RMK A01 T03060158  RH  041%=      5-min Rain = 0
KST3 182316Z 13005KT 31/16 A2988 RMK A01 T03060158  RH  041%=      5-min Rain = 0
KST3 182317Z 15008KT 31/16 A2988 RMK A01 T03060162  RH  042%=      5-min Rain = 0
KST3 182318Z 14005KT 31/16 A2988 RMK A01 T03060162  RH  042%=      5-min Rain = 0
KST3 182319Z 17008KT 31/16 A2988 RMK A01 T03060162  RH  042%=      5-min Rain = 0
KST3 182320Z 19007KT 31/16 A2988 RMK A01 T03070157  RH  040%=      5-min Rain = 0
KST3 182321Z 19008KT 31/16 A2988 RMK A01 T03060159  RH  041%=      5-min Rain = 0
KST3 182322Z 18007KT 31/16 A2987 RMK A01 T03060156  RH  040%=      5-min Rain = 0
KST3 182323Z 17006KT 31/16 A2987 RMK A01 T03050163  RH  042%=      5-min Rain = 0
KST3 182324Z 17006KT 31/16 A2987 RMK A01 T03070164  RH  042%=      5-min Rain = 0
KST3 182325Z 17008KT 31/16 A2987 RMK A01 T03080158  RH  040%=      5-min Rain = 0
KST3 182326Z 18007KT 31/15 A2987 RMK A01 T03050153  RH  040%=      5-min Rain = 0
KST3 182327Z 18007KT 30/15 A2988 RMK A01 T03030153  RH  040%=      5-min Rain = 0
KST3 182328Z 19006KT 30/16 A2988 RMK A01 T03010157  RH  042%=      5-min Rain = 0
KST3 182329Z 21006KT 30/17 A2988 RMK A01 T03000166  RH  044%=      5-min Rain = 0
KST3 182330Z 20005KT 30/16 A2988 RMK A01 T02990155  RH  042%=      5-min Rain = 0
KST3 182331Z 20005KT 30/15 A2988 RMK A01 T02970154  RH  042%=      5-min Rain = 0
KST3 182332Z 20005KT 30/16 A2988 RMK A01 T02960161  RH  044%=      5-min Rain = 0
KST3 182333Z 22004KT 29/17 A2989 RMK A01 T02940166  RH  046%=      5-min Rain = 0
KST3 182334Z 21006KT 29/16 A2989 RMK A01 T02930164  RH  046%=      5-min Rain = 0
KST3 182335Z 21006KT 29/16 A2989 RMK A01 T02920159  RH  045%=      5-min Rain = 0
KST3 182336Z 21006KT 29/16 A2989 RMK A01 T02920157  RH  044%=      5-min Rain = 0
KST3 182337Z 22005KT 29/16 A2989 RMK A01 T02910157  RH  044%=      5-min Rain = 0
KST3 182338Z 21005KT 29/16 A2989 RMK A01 T02910159  RH  045%=      5-min Rain = 0
KST3 182339Z 22005KT 29/16 A2989 RMK A01 T02900162  RH  046%=      5-min Rain = 0
KST3 182340Z 22005KT 29/16 A2989 RMK A01 T02890164  RH  047%=      5-min Rain = 0
KST3 182341Z 22004KT 29/17 A2989 RMK A01 T02880165  RH  047%=      5-min Rain = 0
KST3 182342Z 20004KT 29/17 A2989 RMK A01 T02880166  RH  048%=      5-min Rain = 0
KST3 182343Z 19004KT 29/17 A2989 RMK A01 T02870165  RH  048%=      5-min Rain = 0
KST3 182344Z 18005KT 29/16 A2988 RMK A01 T02860160  RH  046%=      5-min Rain = 0
KST3 182345Z 18007KT 29/16 A2988 RMK A01 T02870159  RH  046%=      5-min Rain = 0
KST3 182346Z 19009KT 29/16 A2988 RMK A01 T02870160  RH  046%=      5-min Rain = 0
KST3 182347Z 18010KT 29/16 A2988 RMK A01 T02860162  RH  047%=      5-min Rain = 0
KST3 182348Z 17010KT 28/16 A2988 RMK A01 T02840160  RH  047%=      5-min Rain = 0
KST3 182349Z 17009KT 28/16 A2988 RMK A01 T02830160  RH  047%=      5-min Rain = 0
KST3 182350Z 16009KT 28/16 A2988 RMK A01 T02820162  RH  048%=      5-min Rain = 0
KST3 182351Z 16008KT 28/16 A2988 RMK A01 T02810158  RH  047%=      5-min Rain = 0
KST3 182352Z 16009KT 28/16 A2988 RMK A01 T02810158  RH  047%=      5-min Rain = 0
KST3 182353Z 16010KT 28/16 A2988 RMK A01 T02800156  RH  047%=      5-min Rain = 0
KST3 182354Z 16009KT 28/15 A2988 RMK A01 T02800154  RH  046%=      5-min Rain = 0
KST3 182355Z 16011KT 28/16 A2988 RMK A01 T02800156  RH  047%=      5-min Rain = 0
KST3 182356Z 16009KT 28/16 A2988 RMK A01 T02800158  RH  047%=      5-min Rain = 0
KST3 182357Z 15009KT 28/16 A2988 RMK A01 T02780160  RH  049%=      5-min Rain = 0
KST3 182358Z 15008KT 28/16 A2988 RMK A01 T02760161  RH  049%=      5-min Rain = 0
KST3 182359Z 14008KT 28/16 A2988 RMK A01 T02760161  RH  050%=      5-min Rain = 0
KST3 190000Z 14008KT 28/16 A2988 RMK A01 T02750162  RH  050%=      5-min Rain = 0
KST3 190001Z 15008KT 27/16 A2988 RMK A01 T02740161  RH  050%=      5-min Rain = 0
KST3 190002Z 13006KT 27/16 A2987 RMK A01 T02740164  RH  051%=      5-min Rain = 0
KST3 190003Z 14005KT 27/16 A2987 RMK A01 T02730164  RH  051%=      5-min Rain = 0
KST3 190004Z 14006KT 27/17 A2987 RMK A01 T02720165  RH  052%=      5-min Rain = 0
KST3 190005Z 14005KT 27/17 A2987 RMK A01 T02720165  RH  052%=      5-min Rain = 0
KST3 190006Z 14006KT 27/16 A2987 RMK A01 T02710163  RH  052%=      5-min Rain = 0
KST3 190007Z 14004KT 27/16 A2987 RMK A01 T02710159  RH  050%=      5-min Rain = 0
KST3 190008Z 14004KT 27/16 A2987 RMK A01 T02710163  RH  052%=      5-min Rain = 0
KST3 190009Z 14004KT 27/16 A2987 RMK A01 T02710162  RH  051%=      5-min Rain = 0
KST3 190010Z 13004KT 27/16 A2987 RMK A01 T02710163  RH  052%=      5-min Rain = 0
KST3 190011Z 13004KT 27/17 A2987 RMK A01 T02710165  RH  052%=      5-min Rain = 0
KST3 190012Z 14004KT 27/17 A2986 RMK A01 T02700166  RH  053%=      5-min Rain = 0
KST3 190013Z 14004KT 27/17 A2986 RMK A01 T02700168  RH  053%=      5-min Rain = 0
KST3 190014Z 14005KT 27/17 A2986 RMK A01 T02690168  RH  054%=      5-min Rain = 0
KST3 190015Z 13005KT 27/17 A2986 RMK A01 T02690166  RH  053%=      5-min Rain = 0
KST3 190016Z 14005KT 27/17 A2986 RMK A01 T02690165  RH  053%=      5-min Rain = 0
KST3 190017Z 13004KT 27/16 A2985 RMK A01 T02690164  RH  053%=      5-min Rain = 0
KST3 190018Z 13004KT 27/16 A2986 RMK A01 T02690164  RH  053%=      5-min Rain = 0
KST3 190019Z 12005KT 27/16 A2986 RMK A01 T02690160  RH  051%=      5-min Rain = 0
KST3 190020Z 11006KT 27/16 A2986 RMK A01 T02690155  RH  050%=      5-min Rain = 0
KST3 190021Z 11007KT 27/15 A2987 RMK A01 T02690153  RH  049%=      5-min Rain = 0
KST3 190022Z 10006KT 27/15 A2987 RMK A01 T02690152  RH  049%=      5-min Rain = 0
KST3 190023Z 10005KT 27/15 A2987 RMK A01 T02690151  RH  049%=      5-min Rain = 0
KST3 190024Z 11006KT 27/15 A2987 RMK A01 T02680153  RH  049%=      5-min Rain = 0
KST3 190025Z 11007KT 27/16 A2986 RMK A01 T02670155  RH  050%=      5-min Rain = 0
KST3 190026Z 12007KT 27/16 A2986 RMK A01 T02660155  RH  050%=      5-min Rain = 0
KST3 190027Z 12007KT 27/16 A2985 RMK A01 T02650155  RH  051%=      5-min Rain = 0
KST3 190028Z 13009KT 26/15 A2985 RMK A01 T02640153  RH  051%=      5-min Rain = 0
KST3 190029Z 13009KT 26/15 A2986 RMK A01 T02640151  RH  050%=      5-min Rain = 0
KST3 190030Z 14009KT 26/15 A2986 RMK A01 T02640150  RH  049%=      5-min Rain = 0
KST3 190031Z 15007KT 26/15 A2985 RMK A01 T02640148  RH  049%=      5-min Rain = 0
KST3 190032Z 14006KT 26/15 A2985 RMK A01 T02640151  RH  050%=      5-min Rain = 0
KST3 190033Z 14008KT 26/15 A2985 RMK A01 T02630153  RH  051%=      5-min Rain = 0
KST3 190034Z 14009KT 26/16 A2985 RMK A01 T02630155  RH  051%=      5-min Rain = 0
KST3 190035Z 14009KT 26/16 A2985 RMK A01 T02640157  RH  052%=      5-min Rain = 0
KST3 190036Z 13008KT 26/16 A2984 RMK A01 T02640157  RH  052%=      5-min Rain = 0
KST3 190037Z 12012KT 27/15 A2984 RMK A01 T02660154  RH  050%=      5-min Rain = 0
KST3 190038Z 12013KT 27/15 A2983 RMK A01 T02690153  RH  049%=      5-min Rain = 0
KST3 190039Z 12012KT 27/16 A2983 RMK A01 T02690155  RH  050%=      5-min Rain = 0
KST3 190040Z 12013KT 27/16 A2983 RMK A01 T02680159  RH  051%=      5-min Rain = 0
KST3 190041Z 12012KT 26/16 A2983 RMK A01 T02630161  RH  053%=      5-min Rain = 0
KST3 190042Z 12013KT 26/16 A2983 RMK A01 T02590163  RH  055%=      5-min Rain = 0
KST3 190043Z 12013KT 26/16 A2983 RMK A01 T02560163  RH  057%=      5-min Rain = 0
KST3 190044Z 11012KT 25/16 A2983 RMK A01 T02540163  RH  057%=      5-min Rain = 0
KST3 190045Z 11011KT 25/16 A2983 RMK A01 T02530163  RH  057%=      5-min Rain = 0
KST3 190046Z 11013KT 25/16 A2983 RMK A01 T02520164  RH  058%=      5-min Rain = 0
KST3 190047Z 10014KT 25/16 A2982 RMK A01 T02520161  RH  057%=      5-min Rain = 0
KST3 190048Z 10015KT 25/16 A2982 RMK A01 T02520158  RH  056%=      5-min Rain = 0
KST3 190049Z 10015KT 25/16 A2982 RMK A01 T02530158  RH  055%=      5-min Rain = 0
KST3 190050Z 09015KT 25/16 A2981 RMK A01 T02540159  RH  056%=      5-min Rain = 0
KST3 190051Z 08013KT 25/16 A2981 RMK A01 T02530160  RH  056%=      5-min Rain = 0
KST3 190052Z 08015KT 25/16 A2981 RMK A01 T02520161  RH  057%=      5-min Rain = 0
KST3 190053Z 08016KT 25/16 A2981 RMK A01 T02500160  RH  057%=      5-min Rain = 0
KST3 190054Z 08016KT 25/16 A2981 RMK A01 T02480156  RH  056%=      5-min Rain = 0
KST3 190055Z 08015KT 25/15 A2982 RMK A01 T02490152  RH  055%=      5-min Rain = 0
KST3 190056Z 08015KT 25/14 A2982 RMK A01 T02510143  RH  051%=      5-min Rain = 0
KST3 190057Z 08015KT 25/14 A2982 RMK A01 T02540142  RH  050%=      5-min Rain = 0
KST3 190058Z 07013G18KT 26/14 A2983 RMK A01 T02560144  RH  050%=      5-min Rain = 0
KST3 190059Z 07014KT 26/15 A2984 RMK A01 T02560147  RH  051%=      5-min Rain = 0
KST3 190100Z 06013KT 26/15 A2984 RMK A01 T02550152  RH  053%=      5-min Rain = 0
KST3 190101Z 05012KT 25/16 A2985 RMK A01 T02530156  RH  055%=      5-min Rain = 0
KST3 190102Z 04010KT 25/16 A2985 RMK A01 T02500159  RH  057%=      5-min Rain = 0
KST3 190103Z 03011KT 25/16 A2985 RMK A01 T02470159  RH  058%=      5-min Rain = 0
KST3 190104Z 01011KT 25/16 A2986 RMK A01 T02450163  RH  060%=      5-min Rain = 0
KST3 190105Z 01013KT 24/17 A2986 RMK A01 T02420168  RH  063%=      5-min Rain = 0
KST3 190106Z 00016KT 24/17 A2986 RMK A01 T02370172  RH  067%=      5-min Rain = 0
KST3 190107Z 36016KT 23/17 A2987 RMK A01 T02340174  RH  069%=      5-min Rain = 0
KST3 190108Z 36017KT 23/18 A2987 RMK A01 T02320176  RH  070%=      5-min Rain = 0.01
KST3 190109Z 36016KT 23/18 A2988 RMK A01 T02300175  RH  071%=      5-min Rain = 0
KST3 190110Z 35016KT 23/18 A2989 RMK A01 T02280175  RH  072%=      5-min Rain = 0.01
KST3 190111Z 35017KT 23/18 A2989 RMK A01 T02260178  RH  074%=      5-min Rain = 0
KST3 190112Z 36016KT 23/18 A2989 RMK A01 T02260176  RH  074%=      5-min Rain = 0
KST3 190113Z 35016KT 23/18 A2989 RMK A01 T02270176  RH  073%=      5-min Rain = 0.01
KST3 190114Z 35015KT 23/18 A2989 RMK A01 T02300176  RH  072%=      5-min Rain = 0.01
KST3 190115Z 35014KT 23/18 A2989 RMK A01 T02300181  RH  074%=      5-min Rain = 0.03
KST3 190116Z 02017G22KT 23/18 A2989 RMK A01 T02280183  RH  076%=      5-min Rain = 0.03
KST3 190117Z 02016G21KT 23/16 A2988 RMK A01 T02270164  RH  068%=      5-min Rain = 0.01
KST3 190118Z 03012G17KT 23/17 A2988 RMK A01 T02280173  RH  071%=      5-min Rain = 0
KST3 190119Z 03010KT 23/18 A2988 RMK A01 T02260180  RH  075%=      5-min Rain = 0.01
KST3 190120Z 04010KT 22/18 A2987 RMK A01 T02230182  RH  077%=      5-min Rain = 0
KST3 190121Z 04012KT 22/18 A2987 RMK A01 T02230175  RH  074%=      5-min Rain = 0
KST3 190122Z 05010KT 23/18 A2987 RMK A01 T02260177  RH  074%=      5-min Rain = 0
KST3 190123Z 06010KT 23/18 A2987 RMK A01 T02270180  RH  075%=      5-min Rain = 0.01
KST3 190124Z 07010KT 23/18 A2987 RMK A01 T02260179  RH  075%=      5-min Rain = 0
KST3 190125Z 08010KT 23/18 A2987 RMK A01 T02260180  RH  075%=      5-min Rain = 0.01
KST3 190126Z 08010KT 22/18 A2987 RMK A01 T02240181  RH  077%=      5-min Rain = 0.01
KST3 190127Z 09010KT 22/18 A2986 RMK A01 T02220179  RH  076%=      5-min Rain = 0.02
KST3 190128Z 10011KT 22/18 A2986 RMK A01 T02210178  RH  077%=      5-min Rain = 0.01
KST3 190129Z 10010KT 22/18 A2986 RMK A01 T02190179  RH  078%=      5-min Rain = 0.01
KST3 190130Z 10010KT 22/17 A2986 RMK A01 T02180173  RH  076%=      5-min Rain = 0.01
KST3 190131Z 11009KT 22/17 A2985 RMK A01 T02170169  RH  074%=      5-min Rain = 0.01
KST3 190132Z 12010KT 22/17 A2986 RMK A01 T02170168  RH  074%=      5-min Rain = 0
KST3 190133Z 13010KT 22/16 A2986 RMK A01 T02160164  RH  072%=      5-min Rain = 0.01
KST3 190134Z 15011KT 21/17 A2986 RMK A01 T02140169  RH  076%=      5-min Rain = 0
KST3 190135Z 16011KT 21/17 A2987 RMK A01 T02090171  RH  079%=      5-min Rain = 0.01
KST3 190136Z 16013KT 21/17 A2987 RMK A01 T02050168  RH  080%=      5-min Rain = 0
KST3 190137Z 16014KT 20/17 A2987 RMK A01 T02020165  RH  079%=      5-min Rain = 0
KST3 190138Z 14012KT 20/17 A2987 RMK A01 T02010165  RH  079%=      5-min Rain = 0
KST3 190139Z 14012KT 20/16 A2987 RMK A01 T02010164  RH  080%=      5-min Rain = 0
KST3 190140Z 14012KT 20/17 A2988 RMK A01 T02010166  RH  080%=      5-min Rain = 0.01
KST3 190141Z 13013KT 20/17 A2988 RMK A01 T02020165  RH  079%=      5-min Rain = 0
KST3 190142Z 13012KT 20/17 A2988 RMK A01 T02020165  RH  079%=      5-min Rain = 0
KST3 190143Z 12010KT 20/17 A2989 RMK A01 T02030165  RH  079%=      5-min Rain = 0
KST3 190144Z 11012KT 21/17 A2989 RMK A01 T02050165  RH  078%=      5-min Rain = 0
KST3 190145Z 11012KT 21/17 A2989 RMK A01 T02090166  RH  076%=      5-min Rain = 0
KST3 190146Z 12011KT 21/17 A2989 RMK A01 T02120168  RH  076%=      5-min Rain = 0
KST3 190147Z 12011KT 21/17 A299 RMK A01 T02130168  RH  076%=      5-min Rain = 0
KST3 190148Z 12011KT 21/17 A299 RMK A01 T02130170  RH  076%=      5-min Rain = 0
KST3 190149Z 12009KT 21/17 A2989 RMK A01 T02140170  RH  076%=      5-min Rain = 0
KST3 190150Z 11008KT 21/17 A2989 RMK A01 T02130171  RH  077%=      5-min Rain = 0
KST3 190151Z 11010KT 21/17 A299 RMK A01 T02120171  RH  077%=      5-min Rain = 0
KST3 190152Z 12012KT 21/17 A299 RMK A01 T02120169  RH  076%=      5-min Rain = 0
KST3 190153Z 12010KT 21/17 A299 RMK A01 T02120168  RH  076%=      5-min Rain = 0
KST3 190154Z 13010KT 21/17 A299 RMK A01 T02120168  RH  076%=      5-min Rain = 0
KST3 190155Z 13011KT 21/17 A299 RMK A01 T02130169  RH  076%=      5-min Rain = 0
KST3 190156Z 14010KT 21/17 A299 RMK A01 T02110169  RH  077%=      5-min Rain = 0
KST3 190157Z 14010KT 21/17 A299 RMK A01 T02090169  RH  078%=      5-min Rain = 0
KST3 190158Z 16008KT 21/17 A299 RMK A01 T02060169  RH  079%=      5-min Rain = 0
KST3 190159Z 16008KT 21/17 A299 RMK A01 T02050170  RH  080%=      5-min Rain = 0
KST3 190200Z 17006KT 20/17 A2989 RMK A01 T02040168  RH  080%=      5-min Rain = 0
KST3 190201Z 16005KT 20/17 A299 RMK A01 T02040169  RH  080%=      5-min Rain = 0
KST3 190202Z 15004KT 20/17 A299 RMK A01 T02040169  RH  081%=      5-min Rain = 0
KST3 190203Z 16004KT 20/17 A2989 RMK A01 T02030169  RH  081%=      5-min Rain = 0
KST3 190204Z 18005KT 20/17 A2989 RMK A01 T02030170  RH  081%=      5-min Rain = 0
KST3 190205Z 18004KT 20/17 A2989 RMK A01 T02030168  RH  081%=      5-min Rain = 0
KST3 190206Z 13007KT 20/17 A2989 RMK A01 T02030170  RH  081%=      5-min Rain = 0
KST3 190207Z 14008G13KT 20/17 A2989 RMK A01 T02030171  RH  082%=      5-min Rain = 0
KST3 190208Z 14010KT 20/17 A2989 RMK A01 T02030171  RH  082%=      5-min Rain = 0
KST3 190209Z 13009KT 20/17 A2989 RMK A01 T02030171  RH  082%=      5-min Rain = 0
KST3 190210Z 14007KT 20/17 A2989 RMK A01 T02030172  RH  082%=      5-min Rain = 0
KST3 190211Z 14010KT 20/17 A2989 RMK A01 T02020171  RH  082%=      5-min Rain = 0
KST3 190212Z 14007KT 20/17 A2989 RMK A01 T02020172  RH  083%=      5-min Rain = 0
KST3 190213Z 14007KT 20/17 A2988 RMK A01 T02010172  RH  084%=      5-min Rain = 0
KST3 190214Z 14007KT 20/17 A2988 RMK A01 T02000171  RH  083%=      5-min Rain = 0
KST3 190215Z 14008KT 20/17 A2988 RMK A01 T01990173  RH  085%=      5-min Rain = 0
KST3 190216Z 14009KT 20/17 A2988 RMK A01 T01980168  RH  082%=      5-min Rain = 0
KST3 190217Z 14009KT 20/17 A2988 RMK A01 T01990166  RH  081%=      5-min Rain = 0
KST3 190218Z 15010KT 20/17 A2988 RMK A01 T01990165  RH  081%=      5-min Rain = 0
KST3 190219Z 14010KT 20/17 A2988 RMK A01 T01990165  RH  081%=      5-min Rain = 0
KST3 190220Z 14012KT 20/16 A2988 RMK A01 T01980161  RH  079%=      5-min Rain = 0
KST3 190221Z 14011G17KT 20/15 A2988 RMK A01 T01980153  RH  075%=      5-min Rain = 0
KST3 190222Z 14012KT 20/15 A2988 RMK A01 T01990151  RH  074%=      5-min Rain = 0
KST3 190223Z 14010KT 20/15 A2988 RMK A01 T02000151  RH  074%=      5-min Rain = 0
KST3 190224Z 13014KT 20/15 A2989 RMK A01 T02000152  RH  074%=      5-min Rain = 0
KST3 190225Z 14007KT 20/15 A2989 RMK A01 T01990151  RH  074%=      5-min Rain = 0
KST3 190226Z 15008KT 20/16 A2989 RMK A01 T01980155  RH  076%=      5-min Rain = 0
KST3 190227Z 16010G15KT 20/15 A2989 RMK A01 T01970154  RH  076%=      5-min Rain = 0
KST3 190228Z 15011KT 20/15 A2989 RMK A01 T01960153  RH  076%=      5-min Rain = 0
KST3 190229Z 15011KT 20/15 A2988 RMK A01 T01950153  RH  077%=      5-min Rain = 0
KST3 190230Z 16010KT 19/15 A2989 RMK A01 T01940151  RH  076%=      5-min Rain = 0
KST3 190231Z 15011KT 19/15 A2989 RMK A01 T01940149  RH  075%=      5-min Rain = 0
KST3 190232Z 15012KT 19/15 A2989 RMK A01 T01940149  RH  075%=      5-min Rain = 0
KST3 190233Z 16012KT 19/15 A2989 RMK A01 T01920146  RH  074%=      5-min Rain = 0
KST3 190234Z 15011KT 19/14 A2989 RMK A01 T01920144  RH  074%=      5-min Rain = 0
KST3 190235Z 16012KT 19/14 A2988 RMK A01 T01910142  RH  073%=      5-min Rain = 0
KST3 190236Z 16012KT 19/14 A2988 RMK A01 T01900141  RH  073%=      5-min Rain = 0
KST3 190237Z 16012KT 19/14 A2988 RMK A01 T01890140  RH  073%=      5-min Rain = 0
KST3 190238Z 15012KT 19/14 A2988 RMK A01 T01880142  RH  075%=      5-min Rain = 0
KST3 190239Z 16010KT 19/14 A2988 RMK A01 T01870144  RH  076%=      5-min Rain = 0
KST3 190240Z 16011KT 19/14 A2988 RMK A01 T01860144  RH  077%=      5-min Rain = 0
KST3 190241Z 16010KT 19/15 A2988 RMK A01 T01850146  RH  078%=      5-min Rain = 0
KST3 190242Z 17010KT 19/15 A2988 RMK A01 T01850146  RH  078%=      5-min Rain = 0
KST3 190243Z 17010KT 18/15 A2988 RMK A01 T01840146  RH  078%=      5-min Rain = 0
KST3 190244Z 17010KT 18/15 A2988 RMK A01 T01840148  RH  079%=      5-min Rain = 0
KST3 190245Z 17010KT 18/15 A2988 RMK A01 T01840145  RH  078%=      5-min Rain = 0
KST3 190246Z 16012KT 18/14 A2989 RMK A01 T01840143  RH  077%=      5-min Rain = 0
KST3 190247Z 17012KT 18/14 A2989 RMK A01 T01840140  RH  075%=      5-min Rain = 0
KST3 190248Z 17013KT 19/14 A2989 RMK A01 T01850139  RH  074%=      5-min Rain = 0
KST3 190249Z 17013KT 19/14 A2989 RMK A01 T01850138  RH  074%=      5-min Rain = 0
KST3 190250Z 16012KT 19/14 A299 RMK A01 T01850139  RH  074%=      5-min Rain = 0
KST3 190251Z 16011KT 18/14 A299 RMK A01 T01840139  RH  075%=      5-min Rain = 0
KST3 190252Z 16011KT 18/14 A299 RMK A01 T01840138  RH  075%=      5-min Rain = 0
KST3 190253Z 17011KT 18/14 A2991 RMK A01 T01840139  RH  075%=      5-min Rain = 0
KST3 190254Z 17010KT 18/14 A2991 RMK A01 T01840140  RH  076%=      5-min Rain = 0
KST3 190255Z 17011KT 18/14 A2991 RMK A01 T01830139  RH  075%=      5-min Rain = 0
KST3 190256Z 18010KT 18/14 A2991 RMK A01 T01840139  RH  075%=      5-min Rain = 0
KST3 190257Z 19010KT 18/14 A2991 RMK A01 T01840141  RH  076%=      5-min Rain = 0
KST3 190258Z 18010KT 18/14 A2991 RMK A01 T01840142  RH  077%=      5-min Rain = 0
KST3 190259Z 19009KT 18/14 A2991 RMK A01 T01830144  RH  078%=      5-min Rain = 0
KST3 190300Z 19009KT 18/14 A2991 RMK A01 T01820144  RH  078%=      5-min Rain = 0
KST3 190301Z 19008KT 18/15 A2991 RMK A01 T01810145  RH  079%=      5-min Rain = 0
KST3 190302Z 18010KT 18/14 A2991 RMK A01 T01810143  RH  079%=      5-min Rain = 0
KST3 190303Z 18009KT 18/14 A2991 RMK A01 T01800142  RH  078%=      5-min Rain = 0
KST3 190304Z 18009KT 18/14 A2991 RMK A01 T01800141  RH  078%=      5-min Rain = 0
KST3 190305Z 18007KT 18/14 A2991 RMK A01 T01810142  RH  078%=      5-min Rain = 0
KST3 190306Z 18007KT 18/14 A2991 RMK A01 T01800142  RH  078%=      5-min Rain = 0
KST3 190307Z 19007KT 18/14 A299 RMK A01 T01800140  RH  078%=      5-min Rain = 0
KST3 190308Z 18007KT 18/14 A299 RMK A01 T01800140  RH  077%=      5-min Rain = 0
KST3 190309Z 19007KT 18/14 A299 RMK A01 T01800140  RH  077%=      5-min Rain = 0
KST3 190310Z 19005KT 18/14 A299 RMK A01 T01800141  RH  078%=      5-min Rain = 0
KST3 190311Z 19005KT 18/14 A299 RMK A01 T01800141  RH  078%=      5-min Rain = 0
KST3 190312Z 19005KT 18/14 A299 RMK A01 T01790140  RH  078%=      5-min Rain = 0
KST3 190313Z 19005KT 18/14 A299 RMK A01 T01790141  RH  078%=      5-min Rain = 0
KST3 190314Z 19004KT 18/14 A299 RMK A01 T01790143  RH  079%=      5-min Rain = 0
KST3 190315Z 19004KT 18/14 A299 RMK A01 T01790140  RH  078%=      5-min Rain = 0
KST3 190316Z 18004KT 18/14 A299 RMK A01 T01790140  RH  078%=      5-min Rain = 0
KST3 190317Z 19003KT 18/14 A299 RMK A01 T01800141  RH  078%=      5-min Rain = 0
KST3 190318Z 19003KT 18/14 A299 RMK A01 T01800142  RH  079%=      5-min Rain = 0
KST3 190319Z 18004KT 18/14 A299 RMK A01 T01800142  RH  078%=      5-min Rain = 0
KST3 190320Z 19004KT 18/14 A299 RMK A01 T01800141  RH  078%=      5-min Rain = 0
KST3 190321Z 19003KT 18/14 A2991 RMK A01 T01810142  RH  078%=      5-min Rain = 0
KST3 190322Z 20001KT 18/14 A2991 RMK A01 T01810136  RH  075%=      5-min Rain = 0
KST3 190323Z 36008G20KT 18/14 A2993 RMK A01 T01820138  RH  076%=      5-min Rain = 0
KST3 190324Z 35022G28KT 18/15 A2994 RMK A01 T01820146  RH  080%=      5-min Rain = 0
KST3 190325Z 35024G29KT 18/15 A2994 RMK A01 T01810148  RH  081%=      5-min Rain = 0
KST3 190326Z 35020KT 18/15 A2993 RMK A01 T01820146  RH  079%=      5-min Rain = 0
KST3 190327Z 35018G24KT 18/14 A2993 RMK A01 T01840144  RH  077%=      5-min Rain = 0
KST3 190328Z 36010KT 19/15 A2992 RMK A01 T01880145  RH  076%=      5-min Rain = 0
KST3 190329Z 36017G35KT 19/15 A2991 RMK A01 T01890147  RH  077%=      5-min Rain = 0
KST3 190330Z 02033G40KT 19/14 A2991 RMK A01 T01930140  RH  072%=      5-min Rain = 0
KST3 190331Z 03030G41KT 21/12 A2991 RMK A01 T02080121  RH  057%=      5-min Rain = 0
KST3 190332Z 36005G15KT 23/12 A2991 RMK A01 T02260115  RH  050%=      5-min Rain = 0
KST3 190333Z 04012KT 23/13 A2991 RMK A01 T02330126  RH  051%=      5-min Rain = 0
KST3 190334Z 04015KT 23/14 A2991 RMK A01 T02250144  RH  060%=      5-min Rain = 0
KST3 190335Z 02014KT 22/14 A2992 RMK A01 T02150144  RH  064%=      5-min Rain = 0
KST3 190336Z 00015KT 21/14 A2992 RMK A01 T02120143  RH  065%=      5-min Rain = 0
KST3 190337Z 35017G24KT 21/14 A2994 RMK A01 T02100144  RH  066%=      5-min Rain = 0
KST3 190338Z 35020KT 21/14 A2994 RMK A01 T02080141  RH  065%=      5-min Rain = 0
KST3 190339Z 35019KT 20/14 A2995 RMK A01 T02040141  RH  067%=      5-min Rain = 0
KST3 190340Z 34018KT 20/14 A2996 RMK A01 T01990141  RH  069%=      5-min Rain = 0
KST3 190341Z 34019KT 19/14 A2996 RMK A01 T01940144  RH  073%=      5-min Rain = 0
KST3 190342Z 34021G27KT 19/14 A2997 RMK A01 T01900143  RH  074%=      5-min Rain = 0
KST3 190343Z 35021G26KT 19/14 A2997 RMK A01 T01870143  RH  075%=      5-min Rain = 0
KST3 190344Z 35020G25KT 19/14 A2997 RMK A01 T01850142  RH  076%=      5-min Rain = 0
KST3 190345Z 35022KT 18/14 A2996 RMK A01 T01830141  RH  077%=      5-min Rain = 0
KST3 190346Z 00022KT 18/14 A2996 RMK A01 T01810142  RH  078%=      5-min Rain = 0
KST3 190347Z 00023KT 18/14 A2995 RMK A01 T01790143  RH  079%=      5-min Rain = 0
KST3 190348Z 01024KT 18/14 A2995 RMK A01 T01760142  RH  080%=      5-min Rain = 0.01
KST3 190349Z 01024KT 17/14 A2995 RMK A01 T01740141  RH  081%=      5-min Rain = 0
KST3 190350Z 36028G33KT 17/14 A2995 RMK A01 T01710141  RH  082%=      5-min Rain = 0
KST3 190351Z 35025G30KT 17/14 A2995 RMK A01 T01680141  RH  084%=      5-min Rain = 0
KST3 190352Z 35026KT 17/14 A2995 RMK A01 T01650141  RH  085%=      5-min Rain = 0
KST3 190353Z 35023G30KT 16/14 A2995 RMK A01 T01640140  RH  086%=      5-min Rain = 0
KST3 190354Z 35026KT 16/14 A2996 RMK A01 T01630139  RH  086%=      5-min Rain = 0
KST3 190355Z 34024KT 16/14 A2997 RMK A01 T01630138  RH  085%=      5-min Rain = 0.01
KST3 190356Z 34022G27KT 16/14 A2997 RMK A01 T01630140  RH  086%=      5-min Rain = 0
KST3 190357Z 34021KT 16/14 A2997 RMK A01 T01620141  RH  087%=      5-min Rain = 0
KST3 190358Z 35022G27KT 16/14 A2996 RMK A01 T01630140  RH  087%=      5-min Rain = 0
KST3 190359Z 36022G29KT 16/14 A2996 RMK A01 T01620138  RH  086%=      5-min Rain = 0
KST3 190400Z 00020KT 16/14 A2995 RMK A01 T01630138  RH  085%=      5-min Rain = 0
KST3 190401Z 01022KT 16/14 A2994 RMK A01 T01630140  RH  086%=      5-min Rain = 0.01
KST3 190402Z 01023KT 16/14 A2993 RMK A01 T01620140  RH  087%=      5-min Rain = 0.01
KST3 190403Z 02021KT 16/14 A2993 RMK A01 T01610139  RH  087%=      5-min Rain = 0.01
KST3 190404Z 02020KT 16/14 A2992 RMK A01 T01590139  RH  087%=      5-min Rain = 0
KST3 190405Z 01020KT 16/14 A2992 RMK A01 T01600138  RH  087%=      5-min Rain = 0
KST3 190406Z 01019KT 16/14 A2993 RMK A01 T01600139  RH  088%=      5-min Rain = 0
KST3 190407Z 01019KT 16/14 A2992 RMK A01 T01580139  RH  088%=      5-min Rain = 0
KST3 190408Z 02018KT 16/14 A2992 RMK A01 T01580139  RH  089%=      5-min Rain = 0
KST3 190409Z 02017KT 16/14 A2991 RMK A01 T01570139  RH  089%=      5-min Rain = 0
KST3 190410Z 02020KT 16/14 A2991 RMK A01 T01570137  RH  088%=      5-min Rain = 0
KST3 190411Z 02019KT 16/14 A2991 RMK A01 T01580135  RH  086%=      5-min Rain = 0
KST3 190412Z 02018KT 16/13 A299 RMK A01 T01590133  RH  084%=      5-min Rain = 0
KST3 190413Z 02016G21KT 16/13 A299 RMK A01 T01600134  RH  085%=      5-min Rain = 0
KST3 190414Z 01016KT 16/13 A2991 RMK A01 T01600134  RH  085%=      5-min Rain = 0
KST3 190415Z 01018KT 16/14 A2991 RMK A01 T01590136  RH  086%=      5-min Rain = 0
KST3 190416Z 00018KT 16/14 A2991 RMK A01 T01590136  RH  086%=      5-min Rain = 0
KST3 190417Z 36018KT 16/14 A2991 RMK A01 T01580136  RH  087%=      5-min Rain = 0
KST3 190418Z 00019KT 16/14 A2992 RMK A01 T01580137  RH  087%=      5-min Rain = 0
KST3 190419Z 00017KT 16/14 A2992 RMK A01 T01570137  RH  088%=      5-min Rain = 0
KST3 190420Z 00019KT 16/14 A2992 RMK A01 T01570138  RH  088%=      5-min Rain = 0
KST3 190421Z 00019KT 16/14 A2992 RMK A01 T01570137  RH  088%=      5-min Rain = 0
KST3 190422Z 01019KT 16/14 A2992 RMK A01 T01570136  RH  087%=      5-min Rain = 0
KST3 190423Z 01017KT 16/14 A2992 RMK A01 T01570137  RH  088%=      5-min Rain = 0
KST3 190424Z 01018KT 16/14 A2992 RMK A01 T01570137  RH  088%=      5-min Rain = 0
KST3 190425Z 01016KT 16/14 A2992 RMK A01 T01570136  RH  088%=      5-min Rain = 0
KST3 190426Z 01018KT 16/14 A2992 RMK A01 T01570136  RH  088%=      5-min Rain = 0
KST3 190427Z 00017KT 16/14 A2992 RMK A01 T01570136  RH  087%=      5-min Rain = 0
KST3 190428Z 00018KT 16/14 A2992 RMK A01 T01570135  RH  087%=      5-min Rain = 0
KST3 190429Z 00016KT 16/14 A2992 RMK A01 T01570135  RH  087%=      5-min Rain = 0
KST3 190430Z 01016KT 16/14 A2992 RMK A01 T01570135  RH  087%=      5-min Rain = 0
KST3 190431Z 01015KT 16/14 A2992 RMK A01 T01570135  RH  087%=      5-min Rain = 0
KST3 190432Z 01015KT 16/14 A2992 RMK A01 T01570135  RH  087%=      5-min Rain = 0
KST3 190433Z 01015KT 16/13 A2992 RMK A01 T01560134  RH  086%=      5-min Rain = 0
KST3 190434Z 01016KT 16/13 A2992 RMK A01 T01570133  RH  086%=      5-min Rain = 0
KST3 190435Z 01015KT 16/13 A2992 RMK A01 T01570132  RH  085%=      5-min Rain = 0
KST3 190436Z 01015KT 16/13 A2992 RMK A01 T01570133  RH  086%=      5-min Rain = 0
KST3 190437Z 01015KT 16/13 A2992 RMK A01 T01570134  RH  086%=      5-min Rain = 0
KST3 190438Z 00015KT 16/13 A2992 RMK A01 T01570134  RH  086%=      5-min Rain = 0
KST3 190439Z 01015KT 16/13 A2992 RMK A01 T01570134  RH  086%=      5-min Rain = 0
KST3 190440Z 01015KT 16/13 A2992 RMK A01 T01570134  RH  086%=      5-min Rain = 0
KST3 190441Z 01013KT 16/14 A2992 RMK A01 T01570135  RH  087%=      5-min Rain = 0
KST3 190442Z 01014KT 16/13 A2991 RMK A01 T01560134  RH  087%=      5-min Rain = 0
KST3 190443Z 00013KT 16/13 A2991 RMK A01 T01560134  RH  087%=      5-min Rain = 0
KST3 190444Z 00013KT 16/13 A2991 RMK A01 T01560134  RH  087%=      5-min Rain = 0
KST3 190445Z 00014KT 16/13 A2991 RMK A01 T01560134  RH  087%=      5-min Rain = 0
KST3 190446Z 01014KT 16/13 A2992 RMK A01 T01560134  RH  087%=      5-min Rain = 0
KST3 190447Z 00013KT 16/13 A2992 RMK A01 T01560133  RH  086%=      5-min Rain = 0
KST3 190448Z 00013KT 16/13 A2992 RMK A01 T01560133  RH  086%=      5-min Rain = 0
KST3 190449Z 00012KT 16/13 A2992 RMK A01 T01560134  RH  086%=      5-min Rain = 0
KST3 190450Z 00013KT 16/13 A2992 RMK A01 T01560133  RH  086%=      5-min Rain = 0
KST3 190451Z 01012KT 16/13 A2992 RMK A01 T01560133  RH  086%=      5-min Rain = 0
KST3 190452Z 01012KT 16/13 A2992 RMK A01 T01560134  RH  087%=      5-min Rain = 0
KST3 190453Z 00011KT 16/13 A2992 RMK A01 T01560134  RH  087%=      5-min Rain = 0
KST3 190454Z 00011KT 16/13 A2992 RMK A01 T01560134  RH  087%=      5-min Rain = 0
KST3 190455Z 01011KT 16/13 A2992 RMK A01 T01560134  RH  087%=      5-min Rain = 0
KST3 190456Z 01011KT 16/13 A2992 RMK A01 T01550134  RH  087%=      5-min Rain = 0
KST3 190457Z 01011KT 16/13 A2992 RMK A01 T01560134  RH  087%=      5-min Rain = 0
KST3 190458Z 01011KT 16/13 A2992 RMK A01 T01560134  RH  087%=      5-min Rain = 0
KST3 190459Z 01011KT 16/13 A2992 RMK A01 T01560133  RH  086%=      5-min Rain = 0

Page generated in 0.0888 seconds.